<?xml version="1.0" encoding="UTF-8" standalone="no" ?>
<gpx xmlns="http://www.topografix.com/GPX/1/1" xmlns:xsi="http://www.w3.org/2001/XMLSchema-instance" xsi:schemaLocation="http://www.topografix.com/GPX/1/1 http://www.topografix.com/GPX/1/1/gpx.xsd" version="1.1" creator="VisuGPX - https://www.visugpx.com">
  <metadata>
    <name>77-Denecourt19 Larchant</name>
    <desc><![CDATA[Tour du golfe de Larchant,partir du Pk de Bois d'Hyver.Mont Simonet,puis vers le Sud :rocher de la Justice,l'Eléphant,fontaine St Mathurin,Mont Blanc.
Vers le Nord:carrefour de Bois d'Hyver,chalet Jobert et retour vers le Sud:Pk.]]></desc>
  </metadata>
  <trk>
    <name><![CDATA[Den 19 golfe Larchant Pk Bois Hyver]]></name>
    <trkseg>
      <trkpt lat="48.29763" lon="2.59826">
        <ele>62.62</ele>
        <time>2017-04-07T07:22:17Z</time>
      </trkpt>
      <trkpt lat="48.29763" lon="2.59826">
        <ele>62.62</ele>
        <time>2017-04-07T07:22:18Z</time>
      </trkpt>
      <trkpt lat="48.29762" lon="2.59826">
        <ele>63.1</ele>
        <time>2017-04-07T07:22:19Z</time>
      </trkpt>
      <trkpt lat="48.29761" lon="2.59826">
        <ele>63.1</ele>
        <time>2017-04-07T07:22:40Z</time>
      </trkpt>
      <trkpt lat="48.29767" lon="2.5982">
        <ele>62.62</ele>
        <time>2017-04-07T07:23:06Z</time>
      </trkpt>
      <trkpt lat="48.29762" lon="2.59817">
        <ele>62.62</ele>
        <time>2017-04-07T07:23:18Z</time>
      </trkpt>
      <trkpt lat="48.29763" lon="2.59805">
        <ele>63.58</ele>
        <time>2017-04-07T07:23:30Z</time>
      </trkpt>
      <trkpt lat="48.29767" lon="2.5979">
        <ele>63.58</ele>
        <time>2017-04-07T07:23:44Z</time>
      </trkpt>
      <trkpt lat="48.29768" lon="2.59769">
        <ele>62.62</ele>
        <time>2017-04-07T07:23:59Z</time>
      </trkpt>
      <trkpt lat="48.29772" lon="2.59752">
        <ele>62.62</ele>
        <time>2017-04-07T07:24:20Z</time>
      </trkpt>
      <trkpt lat="48.29778" lon="2.59737">
        <ele>63.1</ele>
        <time>2017-04-07T07:24:31Z</time>
      </trkpt>
      <trkpt lat="48.29782" lon="2.59711">
        <ele>63.58</ele>
        <time>2017-04-07T07:24:47Z</time>
      </trkpt>
      <trkpt lat="48.29788" lon="2.5969">
        <ele>63.58</ele>
        <time>2017-04-07T07:25:02Z</time>
      </trkpt>
      <trkpt lat="48.29792" lon="2.59668">
        <ele>64.07</ele>
        <time>2017-04-07T07:25:17Z</time>
      </trkpt>
      <trkpt lat="48.29794" lon="2.59664">
        <ele>63.58</ele>
        <time>2017-04-07T07:25:21Z</time>
      </trkpt>
      <trkpt lat="48.29803" lon="2.5966">
        <ele>63.58</ele>
        <time>2017-04-07T07:25:34Z</time>
      </trkpt>
      <trkpt lat="48.29823" lon="2.59664">
        <ele>64.07</ele>
        <time>2017-04-07T07:25:51Z</time>
      </trkpt>
      <trkpt lat="48.29834" lon="2.59656">
        <ele>63.58</ele>
        <time>2017-04-07T07:26:04Z</time>
      </trkpt>
      <trkpt lat="48.29837" lon="2.59655">
        <ele>63.58</ele>
        <time>2017-04-07T07:26:07Z</time>
      </trkpt>
      <trkpt lat="48.29845" lon="2.59643">
        <ele>63.58</ele>
        <time>2017-04-07T07:26:21Z</time>
      </trkpt>
      <trkpt lat="48.29856" lon="2.59629">
        <ele>64.55</ele>
        <time>2017-04-07T07:26:36Z</time>
      </trkpt>
      <trkpt lat="48.29877" lon="2.5962">
        <ele>65.51</ele>
        <time>2017-04-07T07:26:50Z</time>
      </trkpt>
      <trkpt lat="48.29894" lon="2.59608">
        <ele>66.95</ele>
        <time>2017-04-07T07:27:04Z</time>
      </trkpt>
      <trkpt lat="48.2991" lon="2.59592">
        <ele>67.91</ele>
        <time>2017-04-07T07:27:21Z</time>
      </trkpt>
      <trkpt lat="48.29919" lon="2.59582">
        <ele>68.87</ele>
        <time>2017-04-07T07:27:36Z</time>
      </trkpt>
      <trkpt lat="48.29927" lon="2.59569">
        <ele>69.35</ele>
        <time>2017-04-07T07:27:49Z</time>
      </trkpt>
      <trkpt lat="48.29933" lon="2.5955">
        <ele>69.35</ele>
        <time>2017-04-07T07:28:03Z</time>
      </trkpt>
      <trkpt lat="48.29943" lon="2.59528">
        <ele>68.87</ele>
        <time>2017-04-07T07:28:14Z</time>
      </trkpt>
      <trkpt lat="48.29951" lon="2.59504">
        <ele>67.91</ele>
        <time>2017-04-07T07:28:29Z</time>
      </trkpt>
      <trkpt lat="48.29947" lon="2.59478">
        <ele>68.87</ele>
        <time>2017-04-07T07:28:45Z</time>
      </trkpt>
      <trkpt lat="48.29944" lon="2.59466">
        <ele>69.83</ele>
        <time>2017-04-07T07:28:59Z</time>
      </trkpt>
      <trkpt lat="48.29946" lon="2.59462">
        <ele>70.79</ele>
        <time>2017-04-07T07:29:11Z</time>
      </trkpt>
      <trkpt lat="48.29949" lon="2.59462">
        <ele>72.24</ele>
        <time>2017-04-07T07:29:29Z</time>
      </trkpt>
      <trkpt lat="48.29952" lon="2.5946">
        <ele>74.64</ele>
        <time>2017-04-07T07:29:35Z</time>
      </trkpt>
      <trkpt lat="48.29954" lon="2.59442">
        <ele>76.56</ele>
        <time>2017-04-07T07:29:48Z</time>
      </trkpt>
      <trkpt lat="48.29961" lon="2.59434">
        <ele>79.45</ele>
        <time>2017-04-07T07:30:03Z</time>
      </trkpt>
      <trkpt lat="48.29967" lon="2.59449">
        <ele>81.37</ele>
        <time>2017-04-07T07:30:18Z</time>
      </trkpt>
      <trkpt lat="48.2997" lon="2.59449">
        <ele>82.33</ele>
        <time>2017-04-07T07:30:34Z</time>
      </trkpt>
      <trkpt lat="48.29976" lon="2.59443">
        <ele>84.25</ele>
        <time>2017-04-07T07:30:52Z</time>
      </trkpt>
      <trkpt lat="48.29975" lon="2.59451">
        <ele>86.66</ele>
        <time>2017-04-07T07:31:08Z</time>
      </trkpt>
      <trkpt lat="48.29975" lon="2.59443">
        <ele>87.62</ele>
        <time>2017-04-07T07:31:18Z</time>
      </trkpt>
      <trkpt lat="48.29983" lon="2.59438">
        <ele>90.02</ele>
        <time>2017-04-07T07:31:30Z</time>
      </trkpt>
      <trkpt lat="48.29991" lon="2.59432">
        <ele>92.42</ele>
        <time>2017-04-07T07:31:43Z</time>
      </trkpt>
      <trkpt lat="48.29994" lon="2.59434">
        <ele>92.9</ele>
        <time>2017-04-07T07:32:01Z</time>
      </trkpt>
      <trkpt lat="48.29992" lon="2.59429">
        <ele>91.94</ele>
        <time>2017-04-07T07:32:15Z</time>
      </trkpt>
      <trkpt lat="48.29992" lon="2.59427">
        <ele>91.94</ele>
        <time>2017-04-07T07:32:16Z</time>
      </trkpt>
      <trkpt lat="48.29994" lon="2.59423">
        <ele>91.94</ele>
        <time>2017-04-07T07:32:23Z</time>
      </trkpt>
      <trkpt lat="48.29995" lon="2.59418">
        <ele>91.46</ele>
        <time>2017-04-07T07:32:27Z</time>
      </trkpt>
      <trkpt lat="48.29996" lon="2.59417">
        <ele>91.46</ele>
        <time>2017-04-07T07:32:28Z</time>
      </trkpt>
      <trkpt lat="48.29998" lon="2.59415">
        <ele>91.94</ele>
        <time>2017-04-07T07:32:31Z</time>
      </trkpt>
      <trkpt lat="48.29999" lon="2.5941">
        <ele>91.46</ele>
        <time>2017-04-07T07:32:44Z</time>
      </trkpt>
      <trkpt lat="48.29999" lon="2.59405">
        <ele>90.98</ele>
        <time>2017-04-07T07:32:52Z</time>
      </trkpt>
      <trkpt lat="48.30002" lon="2.59403">
        <ele>90.98</ele>
        <time>2017-04-07T07:33:00Z</time>
      </trkpt>
      <trkpt lat="48.30005" lon="2.59401">
        <ele>89.54</ele>
        <time>2017-04-07T07:33:08Z</time>
      </trkpt>
      <trkpt lat="48.30007" lon="2.59394">
        <ele>89.06</ele>
        <time>2017-04-07T07:33:15Z</time>
      </trkpt>
      <trkpt lat="48.30009" lon="2.59383">
        <ele>87.62</ele>
        <time>2017-04-07T07:33:26Z</time>
      </trkpt>
      <trkpt lat="48.30009" lon="2.5937">
        <ele>86.66</ele>
        <time>2017-04-07T07:33:38Z</time>
      </trkpt>
      <trkpt lat="48.30011" lon="2.59355">
        <ele>86.18</ele>
        <time>2017-04-07T07:33:48Z</time>
      </trkpt>
      <trkpt lat="48.30011" lon="2.59352">
        <ele>86.18</ele>
        <time>2017-04-07T07:33:50Z</time>
      </trkpt>
      <trkpt lat="48.30008" lon="2.59345">
        <ele>84.73</ele>
        <time>2017-04-07T07:34:00Z</time>
      </trkpt>
      <trkpt lat="48.3" lon="2.5934">
        <ele>83.29</ele>
        <time>2017-04-07T07:34:10Z</time>
      </trkpt>
      <trkpt lat="48.29993" lon="2.59334">
        <ele>81.37</ele>
        <time>2017-04-07T07:34:21Z</time>
      </trkpt>
      <trkpt lat="48.29984" lon="2.59341">
        <ele>79.45</ele>
        <time>2017-04-07T07:34:34Z</time>
      </trkpt>
      <trkpt lat="48.29979" lon="2.59335">
        <ele>78.48</ele>
        <time>2017-04-07T07:34:44Z</time>
      </trkpt>
      <trkpt lat="48.29971" lon="2.59327">
        <ele>76.56</ele>
        <time>2017-04-07T07:34:55Z</time>
      </trkpt>
      <trkpt lat="48.29967" lon="2.59324">
        <ele>76.08</ele>
        <time>2017-04-07T07:34:59Z</time>
      </trkpt>
      <trkpt lat="48.29952" lon="2.59316">
        <ele>75.6</ele>
        <time>2017-04-07T07:35:13Z</time>
      </trkpt>
      <trkpt lat="48.29942" lon="2.59298">
        <ele>75.12</ele>
        <time>2017-04-07T07:35:28Z</time>
      </trkpt>
      <trkpt lat="48.29943" lon="2.59294">
        <ele>75.12</ele>
        <time>2017-04-07T07:35:34Z</time>
      </trkpt>
      <trkpt lat="48.29937" lon="2.5929">
        <ele>75.12</ele>
        <time>2017-04-07T07:35:47Z</time>
      </trkpt>
      <trkpt lat="48.29933" lon="2.59281">
        <ele>75.12</ele>
        <time>2017-04-07T07:36:04Z</time>
      </trkpt>
      <trkpt lat="48.29916" lon="2.59266">
        <ele>73.2</ele>
        <time>2017-04-07T07:36:23Z</time>
      </trkpt>
      <trkpt lat="48.29898" lon="2.59242">
        <ele>73.68</ele>
        <time>2017-04-07T07:36:40Z</time>
      </trkpt>
      <trkpt lat="48.29886" lon="2.59232">
        <ele>74.64</ele>
        <time>2017-04-07T07:36:52Z</time>
      </trkpt>
      <trkpt lat="48.2988" lon="2.5921">
        <ele>72.72</ele>
        <time>2017-04-07T07:37:09Z</time>
      </trkpt>
      <trkpt lat="48.29876" lon="2.59185">
        <ele>71.27</ele>
        <time>2017-04-07T07:37:24Z</time>
      </trkpt>
      <trkpt lat="48.29872" lon="2.59166">
        <ele>68.39</ele>
        <time>2017-04-07T07:37:39Z</time>
      </trkpt>
      <trkpt lat="48.29856" lon="2.59144">
        <ele>67.43</ele>
        <time>2017-04-07T07:37:57Z</time>
      </trkpt>
      <trkpt lat="48.29848" lon="2.59132">
        <ele>66.95</ele>
        <time>2017-04-07T07:38:09Z</time>
      </trkpt>
      <trkpt lat="48.29839" lon="2.59132">
        <ele>66.95</ele>
        <time>2017-04-07T07:38:26Z</time>
      </trkpt>
      <trkpt lat="48.29833" lon="2.59134">
        <ele>66.47</ele>
        <time>2017-04-07T07:38:41Z</time>
      </trkpt>
      <trkpt lat="48.29821" lon="2.59142">
        <ele>65.99</ele>
        <time>2017-04-07T07:38:51Z</time>
      </trkpt>
      <trkpt lat="48.29808" lon="2.59156">
        <ele>65.99</ele>
        <time>2017-04-07T07:39:07Z</time>
      </trkpt>
      <trkpt lat="48.29793" lon="2.59169">
        <ele>65.51</ele>
        <time>2017-04-07T07:39:22Z</time>
      </trkpt>
      <trkpt lat="48.29788" lon="2.59173">
        <ele>65.03</ele>
        <time>2017-04-07T07:39:26Z</time>
      </trkpt>
      <trkpt lat="48.29765" lon="2.59175">
        <ele>65.03</ele>
        <time>2017-04-07T07:39:44Z</time>
      </trkpt>
      <trkpt lat="48.29746" lon="2.59184">
        <ele>66.47</ele>
        <time>2017-04-07T07:40:02Z</time>
      </trkpt>
      <trkpt lat="48.29736" lon="2.59195">
        <ele>68.87</ele>
        <time>2017-04-07T07:40:17Z</time>
      </trkpt>
      <trkpt lat="48.29727" lon="2.59196">
        <ele>69.83</ele>
        <time>2017-04-07T07:40:29Z</time>
      </trkpt>
      <trkpt lat="48.29721" lon="2.59212">
        <ele>71.27</ele>
        <time>2017-04-07T07:40:43Z</time>
      </trkpt>
      <trkpt lat="48.29714" lon="2.59211">
        <ele>71.76</ele>
        <time>2017-04-07T07:40:51Z</time>
      </trkpt>
      <trkpt lat="48.29703" lon="2.59215">
        <ele>72.24</ele>
        <time>2017-04-07T07:41:02Z</time>
      </trkpt>
      <trkpt lat="48.29699" lon="2.59217">
        <ele>72.24</ele>
        <time>2017-04-07T07:41:06Z</time>
      </trkpt>
      <trkpt lat="48.29688" lon="2.59215">
        <ele>72.72</ele>
        <time>2017-04-07T07:41:17Z</time>
      </trkpt>
      <trkpt lat="48.29682" lon="2.5922">
        <ele>73.2</ele>
        <time>2017-04-07T07:41:24Z</time>
      </trkpt>
      <trkpt lat="48.29677" lon="2.59223">
        <ele>71.76</ele>
        <time>2017-04-07T07:41:29Z</time>
      </trkpt>
      <trkpt lat="48.29672" lon="2.59232">
        <ele>71.27</ele>
        <time>2017-04-07T07:41:37Z</time>
      </trkpt>
      <trkpt lat="48.29661" lon="2.59249">
        <ele>69.83</ele>
        <time>2017-04-07T07:41:53Z</time>
      </trkpt>
      <trkpt lat="48.29652" lon="2.59253">
        <ele>67.43</ele>
        <time>2017-04-07T07:42:06Z</time>
      </trkpt>
      <trkpt lat="48.29644" lon="2.59263">
        <ele>66.47</ele>
        <time>2017-04-07T07:42:19Z</time>
      </trkpt>
      <trkpt lat="48.29638" lon="2.59269">
        <ele>66.95</ele>
        <time>2017-04-07T07:42:27Z</time>
      </trkpt>
      <trkpt lat="48.29633" lon="2.59273">
        <ele>67.43</ele>
        <time>2017-04-07T07:42:32Z</time>
      </trkpt>
      <trkpt lat="48.2963" lon="2.59285">
        <ele>67.43</ele>
        <time>2017-04-07T07:42:39Z</time>
      </trkpt>
      <trkpt lat="48.29628" lon="2.59293">
        <ele>67.91</ele>
        <time>2017-04-07T07:42:44Z</time>
      </trkpt>
      <trkpt lat="48.29619" lon="2.59299">
        <ele>68.87</ele>
        <time>2017-04-07T07:42:58Z</time>
      </trkpt>
      <trkpt lat="48.29612" lon="2.59289">
        <ele>68.87</ele>
        <time>2017-04-07T07:43:10Z</time>
      </trkpt>
      <trkpt lat="48.29603" lon="2.59285">
        <ele>69.83</ele>
        <time>2017-04-07T07:43:24Z</time>
      </trkpt>
      <trkpt lat="48.29596" lon="2.59281">
        <ele>71.76</ele>
        <time>2017-04-07T07:43:36Z</time>
      </trkpt>
      <trkpt lat="48.29592" lon="2.59282">
        <ele>72.24</ele>
        <time>2017-04-07T07:43:40Z</time>
      </trkpt>
      <trkpt lat="48.29589" lon="2.59289">
        <ele>73.68</ele>
        <time>2017-04-07T07:43:47Z</time>
      </trkpt>
      <trkpt lat="48.29582" lon="2.59289">
        <ele>74.16</ele>
        <time>2017-04-07T07:43:58Z</time>
      </trkpt>
      <trkpt lat="48.29577" lon="2.5929">
        <ele>75.6</ele>
        <time>2017-04-07T07:44:04Z</time>
      </trkpt>
      <trkpt lat="48.29575" lon="2.59291">
        <ele>75.6</ele>
        <time>2017-04-07T07:44:06Z</time>
      </trkpt>
      <trkpt lat="48.29573" lon="2.59295">
        <ele>76.56</ele>
        <time>2017-04-07T07:44:10Z</time>
      </trkpt>
      <trkpt lat="48.29569" lon="2.59297">
        <ele>76.56</ele>
        <time>2017-04-07T07:44:13Z</time>
      </trkpt>
      <trkpt lat="48.2956" lon="2.59299">
        <ele>78.97</ele>
        <time>2017-04-07T07:44:24Z</time>
      </trkpt>
      <trkpt lat="48.29551" lon="2.59301">
        <ele>79.93</ele>
        <time>2017-04-07T07:44:35Z</time>
      </trkpt>
      <trkpt lat="48.29547" lon="2.593">
        <ele>81.85</ele>
        <time>2017-04-07T07:44:47Z</time>
      </trkpt>
      <trkpt lat="48.29543" lon="2.59304">
        <ele>83.77</ele>
        <time>2017-04-07T07:44:59Z</time>
      </trkpt>
      <trkpt lat="48.29537" lon="2.59306">
        <ele>84.73</ele>
        <time>2017-04-07T07:45:13Z</time>
      </trkpt>
      <trkpt lat="48.2953" lon="2.59301">
        <ele>85.21</ele>
        <time>2017-04-07T07:45:24Z</time>
      </trkpt>
      <trkpt lat="48.29531" lon="2.59297">
        <ele>86.18</ele>
        <time>2017-04-07T07:45:33Z</time>
      </trkpt>
      <trkpt lat="48.29529" lon="2.59297">
        <ele>86.66</ele>
        <time>2017-04-07T07:45:44Z</time>
      </trkpt>
      <trkpt lat="48.29531" lon="2.59285">
        <ele>87.14</ele>
        <time>2017-04-07T07:45:57Z</time>
      </trkpt>
      <trkpt lat="48.29528" lon="2.59278">
        <ele>89.06</ele>
        <time>2017-04-07T07:46:09Z</time>
      </trkpt>
      <trkpt lat="48.29528" lon="2.59277">
        <ele>88.58</ele>
        <time>2017-04-07T07:46:10Z</time>
      </trkpt>
      <trkpt lat="48.29531" lon="2.59262">
        <ele>88.58</ele>
        <time>2017-04-07T07:46:21Z</time>
      </trkpt>
      <trkpt lat="48.29534" lon="2.59253">
        <ele>89.54</ele>
        <time>2017-04-07T07:46:33Z</time>
      </trkpt>
      <trkpt lat="48.29538" lon="2.59233">
        <ele>90.5</ele>
        <time>2017-04-07T07:46:46Z</time>
      </trkpt>
      <trkpt lat="48.29541" lon="2.59223">
        <ele>90.5</ele>
        <time>2017-04-07T07:46:54Z</time>
      </trkpt>
      <trkpt lat="48.29542" lon="2.59217">
        <ele>90.5</ele>
        <time>2017-04-07T07:46:57Z</time>
      </trkpt>
      <trkpt lat="48.29543" lon="2.59212">
        <ele>90.5</ele>
        <time>2017-04-07T07:47:01Z</time>
      </trkpt>
      <trkpt lat="48.29544" lon="2.59194">
        <ele>90.5</ele>
        <time>2017-04-07T07:47:12Z</time>
      </trkpt>
      <trkpt lat="48.29544" lon="2.59193">
        <ele>90.98</ele>
        <time>2017-04-07T07:47:14Z</time>
      </trkpt>
      <trkpt lat="48.29544" lon="2.5918">
        <ele>92.9</ele>
        <time>2017-04-07T07:47:25Z</time>
      </trkpt>
      <trkpt lat="48.29545" lon="2.59168">
        <ele>92.42</ele>
        <time>2017-04-07T07:47:35Z</time>
      </trkpt>
      <trkpt lat="48.29544" lon="2.59164">
        <ele>92.9</ele>
        <time>2017-04-07T07:47:38Z</time>
      </trkpt>
      <trkpt lat="48.29545" lon="2.59159">
        <ele>92.9</ele>
        <time>2017-04-07T07:47:49Z</time>
      </trkpt>
      <trkpt lat="48.29544" lon="2.59156">
        <ele>91.46</ele>
        <time>2017-04-07T07:47:55Z</time>
      </trkpt>
      <trkpt lat="48.2954" lon="2.59154">
        <ele>90.5</ele>
        <time>2017-04-07T07:48:09Z</time>
      </trkpt>
      <trkpt lat="48.2954" lon="2.59155">
        <ele>90.02</ele>
        <time>2017-04-07T07:48:16Z</time>
      </trkpt>
      <trkpt lat="48.29531" lon="2.59156">
        <ele>89.54</ele>
        <time>2017-04-07T07:48:27Z</time>
      </trkpt>
      <trkpt lat="48.29532" lon="2.59155">
        <ele>89.06</ele>
        <time>2017-04-07T07:48:29Z</time>
      </trkpt>
      <trkpt lat="48.2953" lon="2.59152">
        <ele>90.02</ele>
        <time>2017-04-07T07:48:32Z</time>
      </trkpt>
      <trkpt lat="48.29529" lon="2.59149">
        <ele>90.02</ele>
        <time>2017-04-07T07:48:35Z</time>
      </trkpt>
      <trkpt lat="48.29527" lon="2.59139">
        <ele>90.5</ele>
        <time>2017-04-07T07:48:42Z</time>
      </trkpt>
      <trkpt lat="48.29518" lon="2.59126">
        <ele>90.98</ele>
        <time>2017-04-07T07:48:52Z</time>
      </trkpt>
      <trkpt lat="48.2951" lon="2.59115">
        <ele>91.46</ele>
        <time>2017-04-07T07:49:04Z</time>
      </trkpt>
      <trkpt lat="48.29505" lon="2.59107">
        <ele>91.46</ele>
        <time>2017-04-07T07:49:15Z</time>
      </trkpt>
      <trkpt lat="48.29505" lon="2.59106">
        <ele>91.46</ele>
        <time>2017-04-07T07:49:16Z</time>
      </trkpt>
      <trkpt lat="48.295" lon="2.59086">
        <ele>91.94</ele>
        <time>2017-04-07T07:49:27Z</time>
      </trkpt>
      <trkpt lat="48.295" lon="2.59084">
        <ele>91.94</ele>
        <time>2017-04-07T07:49:29Z</time>
      </trkpt>
      <trkpt lat="48.29501" lon="2.5908">
        <ele>91.46</ele>
        <time>2017-04-07T07:49:45Z</time>
      </trkpt>
      <trkpt lat="48.29499" lon="2.59076">
        <ele>91.94</ele>
        <time>2017-04-07T07:50:13Z</time>
      </trkpt>
      <trkpt lat="48.29498" lon="2.59077">
        <ele>91.46</ele>
        <time>2017-04-07T07:50:15Z</time>
      </trkpt>
      <trkpt lat="48.29497" lon="2.59081">
        <ele>91.46</ele>
        <time>2017-04-07T07:50:17Z</time>
      </trkpt>
      <trkpt lat="48.2949" lon="2.59093">
        <ele>91.46</ele>
        <time>2017-04-07T07:50:29Z</time>
      </trkpt>
      <trkpt lat="48.29489" lon="2.59096">
        <ele>91.46</ele>
        <time>2017-04-07T07:50:32Z</time>
      </trkpt>
      <trkpt lat="48.29485" lon="2.591">
        <ele>90.5</ele>
        <time>2017-04-07T07:50:37Z</time>
      </trkpt>
      <trkpt lat="48.29479" lon="2.59108">
        <ele>90.5</ele>
        <time>2017-04-07T07:50:44Z</time>
      </trkpt>
      <trkpt lat="48.29471" lon="2.59121">
        <ele>90.5</ele>
        <time>2017-04-07T07:50:55Z</time>
      </trkpt>
      <trkpt lat="48.29465" lon="2.59141">
        <ele>90.5</ele>
        <time>2017-04-07T07:51:08Z</time>
      </trkpt>
      <trkpt lat="48.29464" lon="2.59142">
        <ele>90.98</ele>
        <time>2017-04-07T07:51:09Z</time>
      </trkpt>
      <trkpt lat="48.29459" lon="2.59162">
        <ele>91.46</ele>
        <time>2017-04-07T07:51:22Z</time>
      </trkpt>
      <trkpt lat="48.29459" lon="2.59164">
        <ele>91.46</ele>
        <time>2017-04-07T07:51:23Z</time>
      </trkpt>
      <trkpt lat="48.29461" lon="2.5918">
        <ele>91.94</ele>
        <time>2017-04-07T07:51:33Z</time>
      </trkpt>
      <trkpt lat="48.29461" lon="2.59184">
        <ele>92.42</ele>
        <time>2017-04-07T07:51:36Z</time>
      </trkpt>
      <trkpt lat="48.29464" lon="2.59195">
        <ele>92.9</ele>
        <time>2017-04-07T07:51:45Z</time>
      </trkpt>
      <trkpt lat="48.29461" lon="2.59206">
        <ele>93.39</ele>
        <time>2017-04-07T07:51:58Z</time>
      </trkpt>
      <trkpt lat="48.29461" lon="2.5921">
        <ele>92.9</ele>
        <time>2017-04-07T07:52:12Z</time>
      </trkpt>
      <trkpt lat="48.29462" lon="2.59217">
        <ele>93.39</ele>
        <time>2017-04-07T07:52:41Z</time>
      </trkpt>
      <trkpt lat="48.29458" lon="2.59209">
        <ele>93.39</ele>
        <time>2017-04-07T07:53:12Z</time>
      </trkpt>
      <trkpt lat="48.29456" lon="2.5921">
        <ele>92.9</ele>
        <time>2017-04-07T07:53:16Z</time>
      </trkpt>
      <trkpt lat="48.29454" lon="2.59214">
        <ele>92.9</ele>
        <time>2017-04-07T07:53:18Z</time>
      </trkpt>
      <trkpt lat="48.29453" lon="2.59217">
        <ele>92.42</ele>
        <time>2017-04-07T07:53:19Z</time>
      </trkpt>
      <trkpt lat="48.29452" lon="2.5922">
        <ele>92.42</ele>
        <time>2017-04-07T07:53:20Z</time>
      </trkpt>
      <trkpt lat="48.29451" lon="2.59222">
        <ele>92.9</ele>
        <time>2017-04-07T07:53:21Z</time>
      </trkpt>
      <trkpt lat="48.29451" lon="2.59225">
        <ele>92.42</ele>
        <time>2017-04-07T07:53:22Z</time>
      </trkpt>
      <trkpt lat="48.2945" lon="2.59226">
        <ele>92.9</ele>
        <time>2017-04-07T07:53:23Z</time>
      </trkpt>
      <trkpt lat="48.2945" lon="2.59227">
        <ele>92.42</ele>
        <time>2017-04-07T07:53:24Z</time>
      </trkpt>
      <trkpt lat="48.29449" lon="2.59228">
        <ele>92.42</ele>
        <time>2017-04-07T07:53:25Z</time>
      </trkpt>
      <trkpt lat="48.29448" lon="2.59229">
        <ele>92.42</ele>
        <time>2017-04-07T07:53:26Z</time>
      </trkpt>
      <trkpt lat="48.29448" lon="2.5923">
        <ele>91.94</ele>
        <time>2017-04-07T07:53:27Z</time>
      </trkpt>
      <trkpt lat="48.29441" lon="2.59236">
        <ele>91.46</ele>
        <time>2017-04-07T07:53:35Z</time>
      </trkpt>
      <trkpt lat="48.2944" lon="2.59236">
        <ele>91.46</ele>
        <time>2017-04-07T07:53:36Z</time>
      </trkpt>
      <trkpt lat="48.29439" lon="2.59236">
        <ele>91.46</ele>
        <time>2017-04-07T07:53:49Z</time>
      </trkpt>
      <trkpt lat="48.29439" lon="2.59238">
        <ele>91.46</ele>
        <time>2017-04-07T07:54:02Z</time>
      </trkpt>
      <trkpt lat="48.29434" lon="2.59237">
        <ele>91.46</ele>
        <time>2017-04-07T07:54:22Z</time>
      </trkpt>
      <trkpt lat="48.2943" lon="2.59235">
        <ele>90.5</ele>
        <time>2017-04-07T07:54:33Z</time>
      </trkpt>
      <trkpt lat="48.2943" lon="2.59235">
        <ele>90.5</ele>
        <time>2017-04-07T07:54:46Z</time>
      </trkpt>
      <trkpt lat="48.29429" lon="2.59234">
        <ele>90.02</ele>
        <time>2017-04-07T07:54:47Z</time>
      </trkpt>
      <trkpt lat="48.29425" lon="2.59226">
        <ele>90.98</ele>
        <time>2017-04-07T07:54:56Z</time>
      </trkpt>
      <trkpt lat="48.29425" lon="2.59227">
        <ele>90.5</ele>
        <time>2017-04-07T07:55:01Z</time>
      </trkpt>
      <trkpt lat="48.29424" lon="2.59225">
        <ele>90.5</ele>
        <time>2017-04-07T07:55:02Z</time>
      </trkpt>
      <trkpt lat="48.29425" lon="2.59223">
        <ele>90.02</ele>
        <time>2017-04-07T07:55:06Z</time>
      </trkpt>
      <trkpt lat="48.29425" lon="2.59219">
        <ele>90.5</ele>
        <time>2017-04-07T07:55:09Z</time>
      </trkpt>
      <trkpt lat="48.29424" lon="2.59217">
        <ele>90.02</ele>
        <time>2017-04-07T07:55:10Z</time>
      </trkpt>
      <trkpt lat="48.29424" lon="2.59215">
        <ele>89.54</ele>
        <time>2017-04-07T07:55:11Z</time>
      </trkpt>
      <trkpt lat="48.29425" lon="2.59213">
        <ele>89.54</ele>
        <time>2017-04-07T07:55:20Z</time>
      </trkpt>
      <trkpt lat="48.29426" lon="2.59209">
        <ele>89.06</ele>
        <time>2017-04-07T07:55:25Z</time>
      </trkpt>
      <trkpt lat="48.29425" lon="2.59202">
        <ele>87.62</ele>
        <time>2017-04-07T07:55:35Z</time>
      </trkpt>
      <trkpt lat="48.29424" lon="2.59203">
        <ele>87.14</ele>
        <time>2017-04-07T07:55:36Z</time>
      </trkpt>
      <trkpt lat="48.29422" lon="2.592">
        <ele>86.66</ele>
        <time>2017-04-07T07:55:41Z</time>
      </trkpt>
      <trkpt lat="48.29419" lon="2.592">
        <ele>85.69</ele>
        <time>2017-04-07T07:55:45Z</time>
      </trkpt>
      <trkpt lat="48.29415" lon="2.59198">
        <ele>83.77</ele>
        <time>2017-04-07T07:55:56Z</time>
      </trkpt>
      <trkpt lat="48.29412" lon="2.59193">
        <ele>80.41</ele>
        <time>2017-04-07T07:56:06Z</time>
      </trkpt>
      <trkpt lat="48.2941" lon="2.59191">
        <ele>80.41</ele>
        <time>2017-04-07T07:56:10Z</time>
      </trkpt>
      <trkpt lat="48.29408" lon="2.59191">
        <ele>79.45</ele>
        <time>2017-04-07T07:56:11Z</time>
      </trkpt>
      <trkpt lat="48.29402" lon="2.59194">
        <ele>78.97</ele>
        <time>2017-04-07T07:56:16Z</time>
      </trkpt>
      <trkpt lat="48.29401" lon="2.59194">
        <ele>78.48</ele>
        <time>2017-04-07T07:56:20Z</time>
      </trkpt>
      <trkpt lat="48.29399" lon="2.59192">
        <ele>77.52</ele>
        <time>2017-04-07T07:56:24Z</time>
      </trkpt>
      <trkpt lat="48.29397" lon="2.59191">
        <ele>78</ele>
        <time>2017-04-07T07:56:26Z</time>
      </trkpt>
      <trkpt lat="48.29394" lon="2.59191">
        <ele>77.04</ele>
        <time>2017-04-07T07:56:30Z</time>
      </trkpt>
      <trkpt lat="48.29387" lon="2.59194">
        <ele>76.08</ele>
        <time>2017-04-07T07:56:40Z</time>
      </trkpt>
      <trkpt lat="48.29377" lon="2.59197">
        <ele>74.16</ele>
        <time>2017-04-07T07:56:53Z</time>
      </trkpt>
      <trkpt lat="48.29373" lon="2.59201">
        <ele>73.68</ele>
        <time>2017-04-07T07:56:59Z</time>
      </trkpt>
      <trkpt lat="48.29362" lon="2.59208">
        <ele>72.72</ele>
        <time>2017-04-07T07:57:10Z</time>
      </trkpt>
      <trkpt lat="48.29362" lon="2.59211">
        <ele>73.2</ele>
        <time>2017-04-07T07:57:12Z</time>
      </trkpt>
      <trkpt lat="48.29362" lon="2.59214">
        <ele>73.2</ele>
        <time>2017-04-07T07:57:13Z</time>
      </trkpt>
      <trkpt lat="48.29361" lon="2.59229">
        <ele>72.72</ele>
        <time>2017-04-07T07:57:22Z</time>
      </trkpt>
      <trkpt lat="48.29361" lon="2.59236">
        <ele>73.2</ele>
        <time>2017-04-07T07:57:26Z</time>
      </trkpt>
      <trkpt lat="48.29361" lon="2.59237">
        <ele>72.72</ele>
        <time>2017-04-07T07:57:27Z</time>
      </trkpt>
      <trkpt lat="48.29359" lon="2.59253">
        <ele>72.72</ele>
        <time>2017-04-07T07:57:37Z</time>
      </trkpt>
      <trkpt lat="48.29353" lon="2.59264">
        <ele>72.72</ele>
        <time>2017-04-07T07:57:45Z</time>
      </trkpt>
      <trkpt lat="48.29351" lon="2.59275">
        <ele>72.24</ele>
        <time>2017-04-07T07:57:52Z</time>
      </trkpt>
      <trkpt lat="48.2935" lon="2.59276">
        <ele>72.72</ele>
        <time>2017-04-07T07:57:53Z</time>
      </trkpt>
      <trkpt lat="48.29349" lon="2.59278">
        <ele>72.72</ele>
        <time>2017-04-07T07:57:54Z</time>
      </trkpt>
      <trkpt lat="48.29349" lon="2.59279">
        <ele>72.72</ele>
        <time>2017-04-07T07:57:55Z</time>
      </trkpt>
      <trkpt lat="48.29347" lon="2.59283">
        <ele>73.2</ele>
        <time>2017-04-07T07:57:58Z</time>
      </trkpt>
      <trkpt lat="48.29346" lon="2.59285">
        <ele>73.2</ele>
        <time>2017-04-07T07:57:59Z</time>
      </trkpt>
      <trkpt lat="48.29344" lon="2.59292">
        <ele>72.72</ele>
        <time>2017-04-07T07:58:05Z</time>
      </trkpt>
      <trkpt lat="48.29344" lon="2.59292">
        <ele>72.72</ele>
        <time>2017-04-07T07:58:06Z</time>
      </trkpt>
      <trkpt lat="48.29344" lon="2.59294">
        <ele>72.72</ele>
        <time>2017-04-07T07:58:07Z</time>
      </trkpt>
      <trkpt lat="48.29346" lon="2.59319">
        <ele>72.72</ele>
        <time>2017-04-07T07:58:19Z</time>
      </trkpt>
      <trkpt lat="48.29347" lon="2.5933">
        <ele>73.68</ele>
        <time>2017-04-07T07:58:26Z</time>
      </trkpt>
      <trkpt lat="48.29348" lon="2.59332">
        <ele>73.68</ele>
        <time>2017-04-07T07:58:27Z</time>
      </trkpt>
      <trkpt lat="48.2935" lon="2.59348">
        <ele>73.68</ele>
        <time>2017-04-07T07:58:38Z</time>
      </trkpt>
      <trkpt lat="48.29353" lon="2.5936">
        <ele>74.16</ele>
        <time>2017-04-07T07:58:49Z</time>
      </trkpt>
      <trkpt lat="48.29356" lon="2.59373">
        <ele>74.64</ele>
        <time>2017-04-07T07:58:58Z</time>
      </trkpt>
      <trkpt lat="48.29359" lon="2.59387">
        <ele>74.64</ele>
        <time>2017-04-07T07:59:07Z</time>
      </trkpt>
      <trkpt lat="48.29363" lon="2.59401">
        <ele>74.64</ele>
        <time>2017-04-07T07:59:16Z</time>
      </trkpt>
      <trkpt lat="48.29364" lon="2.59406">
        <ele>74.64</ele>
        <time>2017-04-07T07:59:27Z</time>
      </trkpt>
      <trkpt lat="48.29365" lon="2.59406">
        <ele>74.16</ele>
        <time>2017-04-07T07:59:31Z</time>
      </trkpt>
      <trkpt lat="48.29364" lon="2.59402">
        <ele>74.64</ele>
        <time>2017-04-07T07:59:35Z</time>
      </trkpt>
      <trkpt lat="48.29365" lon="2.59397">
        <ele>74.64</ele>
        <time>2017-04-07T07:59:45Z</time>
      </trkpt>
      <trkpt lat="48.29365" lon="2.594">
        <ele>75.12</ele>
        <time>2017-04-07T07:59:57Z</time>
      </trkpt>
      <trkpt lat="48.29365" lon="2.59404">
        <ele>74.16</ele>
        <time>2017-04-07T08:00:01Z</time>
      </trkpt>
      <trkpt lat="48.29365" lon="2.59409">
        <ele>74.16</ele>
        <time>2017-04-07T08:00:05Z</time>
      </trkpt>
      <trkpt lat="48.29365" lon="2.59411">
        <ele>74.64</ele>
        <time>2017-04-07T08:00:06Z</time>
      </trkpt>
      <trkpt lat="48.29366" lon="2.59412">
        <ele>74.64</ele>
        <time>2017-04-07T08:00:07Z</time>
      </trkpt>
      <trkpt lat="48.29368" lon="2.59427">
        <ele>74.64</ele>
        <time>2017-04-07T08:00:19Z</time>
      </trkpt>
      <trkpt lat="48.29372" lon="2.59444">
        <ele>74.64</ele>
        <time>2017-04-07T08:00:32Z</time>
      </trkpt>
      <trkpt lat="48.29375" lon="2.59455">
        <ele>74.16</ele>
        <time>2017-04-07T08:00:40Z</time>
      </trkpt>
      <trkpt lat="48.29375" lon="2.59469">
        <ele>73.2</ele>
        <time>2017-04-07T08:00:53Z</time>
      </trkpt>
      <trkpt lat="48.29373" lon="2.59483">
        <ele>73.68</ele>
        <time>2017-04-07T08:01:09Z</time>
      </trkpt>
      <trkpt lat="48.29368" lon="2.59491">
        <ele>73.68</ele>
        <time>2017-04-07T08:01:21Z</time>
      </trkpt>
      <trkpt lat="48.29367" lon="2.5949">
        <ele>73.68</ele>
        <time>2017-04-07T08:01:23Z</time>
      </trkpt>
      <trkpt lat="48.29358" lon="2.59491">
        <ele>72.72</ele>
        <time>2017-04-07T08:01:33Z</time>
      </trkpt>
      <trkpt lat="48.29347" lon="2.595">
        <ele>73.2</ele>
        <time>2017-04-07T08:01:44Z</time>
      </trkpt>
      <trkpt lat="48.29334" lon="2.59502">
        <ele>73.2</ele>
        <time>2017-04-07T08:01:56Z</time>
      </trkpt>
      <trkpt lat="48.29329" lon="2.59501">
        <ele>72.72</ele>
        <time>2017-04-07T08:02:05Z</time>
      </trkpt>
      <trkpt lat="48.29319" lon="2.59507">
        <ele>73.2</ele>
        <time>2017-04-07T08:02:18Z</time>
      </trkpt>
      <trkpt lat="48.29317" lon="2.5951">
        <ele>72.72</ele>
        <time>2017-04-07T08:02:20Z</time>
      </trkpt>
      <trkpt lat="48.29304" lon="2.59514">
        <ele>72.72</ele>
        <time>2017-04-07T08:02:32Z</time>
      </trkpt>
      <trkpt lat="48.29294" lon="2.59512">
        <ele>72.24</ele>
        <time>2017-04-07T08:02:43Z</time>
      </trkpt>
      <trkpt lat="48.29288" lon="2.59513">
        <ele>70.79</ele>
        <time>2017-04-07T08:02:59Z</time>
      </trkpt>
      <trkpt lat="48.29281" lon="2.59512">
        <ele>69.35</ele>
        <time>2017-04-07T08:03:05Z</time>
      </trkpt>
      <trkpt lat="48.29277" lon="2.59513">
        <ele>66.47</ele>
        <time>2017-04-07T08:03:17Z</time>
      </trkpt>
      <trkpt lat="48.29272" lon="2.59506">
        <ele>66.47</ele>
        <time>2017-04-07T08:03:24Z</time>
      </trkpt>
      <trkpt lat="48.29263" lon="2.59509">
        <ele>65.99</ele>
        <time>2017-04-07T08:03:33Z</time>
      </trkpt>
      <trkpt lat="48.2926" lon="2.5951">
        <ele>65.99</ele>
        <time>2017-04-07T08:03:35Z</time>
      </trkpt>
      <trkpt lat="48.29255" lon="2.59509">
        <ele>65.99</ele>
        <time>2017-04-07T08:03:43Z</time>
      </trkpt>
      <trkpt lat="48.29254" lon="2.59508">
        <ele>65.99</ele>
        <time>2017-04-07T08:03:46Z</time>
      </trkpt>
      <trkpt lat="48.29253" lon="2.59508">
        <ele>66.47</ele>
        <time>2017-04-07T08:03:47Z</time>
      </trkpt>
      <trkpt lat="48.29247" lon="2.59505">
        <ele>66.47</ele>
        <time>2017-04-07T08:03:55Z</time>
      </trkpt>
      <trkpt lat="48.29238" lon="2.595">
        <ele>67.43</ele>
        <time>2017-04-07T08:04:07Z</time>
      </trkpt>
      <trkpt lat="48.29233" lon="2.59497">
        <ele>67.91</ele>
        <time>2017-04-07T08:04:12Z</time>
      </trkpt>
      <trkpt lat="48.29231" lon="2.59497">
        <ele>67.43</ele>
        <time>2017-04-07T08:04:13Z</time>
      </trkpt>
      <trkpt lat="48.29224" lon="2.59494">
        <ele>68.39</ele>
        <time>2017-04-07T08:04:21Z</time>
      </trkpt>
      <trkpt lat="48.29222" lon="2.59493">
        <ele>68.87</ele>
        <time>2017-04-07T08:04:24Z</time>
      </trkpt>
      <trkpt lat="48.29216" lon="2.59485">
        <ele>71.27</ele>
        <time>2017-04-07T08:04:36Z</time>
      </trkpt>
      <trkpt lat="48.29215" lon="2.59484">
        <ele>71.76</ele>
        <time>2017-04-07T08:04:38Z</time>
      </trkpt>
      <trkpt lat="48.29213" lon="2.59475">
        <ele>74.16</ele>
        <time>2017-04-07T08:04:47Z</time>
      </trkpt>
      <trkpt lat="48.2921" lon="2.59463">
        <ele>74.64</ele>
        <time>2017-04-07T08:04:58Z</time>
      </trkpt>
      <trkpt lat="48.29209" lon="2.59462">
        <ele>75.12</ele>
        <time>2017-04-07T08:04:59Z</time>
      </trkpt>
      <trkpt lat="48.29208" lon="2.59459">
        <ele>75.12</ele>
        <time>2017-04-07T08:05:02Z</time>
      </trkpt>
      <trkpt lat="48.29207" lon="2.59454">
        <ele>75.6</ele>
        <time>2017-04-07T08:05:06Z</time>
      </trkpt>
      <trkpt lat="48.29205" lon="2.5944">
        <ele>76.08</ele>
        <time>2017-04-07T08:05:18Z</time>
      </trkpt>
      <trkpt lat="48.29203" lon="2.59434">
        <ele>77.04</ele>
        <time>2017-04-07T08:05:28Z</time>
      </trkpt>
      <trkpt lat="48.29202" lon="2.59433">
        <ele>77.04</ele>
        <time>2017-04-07T08:05:29Z</time>
      </trkpt>
      <trkpt lat="48.292" lon="2.59422">
        <ele>78.97</ele>
        <time>2017-04-07T08:05:38Z</time>
      </trkpt>
      <trkpt lat="48.292" lon="2.594">
        <ele>80.89</ele>
        <time>2017-04-07T08:05:50Z</time>
      </trkpt>
      <trkpt lat="48.29197" lon="2.59392">
        <ele>82.81</ele>
        <time>2017-04-07T08:05:58Z</time>
      </trkpt>
      <trkpt lat="48.29193" lon="2.59379">
        <ele>85.69</ele>
        <time>2017-04-07T08:06:10Z</time>
      </trkpt>
      <trkpt lat="48.29188" lon="2.59374">
        <ele>88.1</ele>
        <time>2017-04-07T08:06:23Z</time>
      </trkpt>
      <trkpt lat="48.29184" lon="2.59381">
        <ele>90.02</ele>
        <time>2017-04-07T08:06:34Z</time>
      </trkpt>
      <trkpt lat="48.29179" lon="2.5939">
        <ele>91.94</ele>
        <time>2017-04-07T08:06:45Z</time>
      </trkpt>
      <trkpt lat="48.29177" lon="2.59392">
        <ele>92.42</ele>
        <time>2017-04-07T08:06:48Z</time>
      </trkpt>
      <trkpt lat="48.29168" lon="2.59399">
        <ele>93.39</ele>
        <time>2017-04-07T08:07:00Z</time>
      </trkpt>
      <trkpt lat="48.29166" lon="2.594">
        <ele>94.35</ele>
        <time>2017-04-07T08:07:07Z</time>
      </trkpt>
      <trkpt lat="48.2916" lon="2.59401">
        <ele>96.27</ele>
        <time>2017-04-07T08:07:18Z</time>
      </trkpt>
      <trkpt lat="48.29152" lon="2.59401">
        <ele>95.79</ele>
        <time>2017-04-07T08:07:30Z</time>
      </trkpt>
      <trkpt lat="48.29146" lon="2.594">
        <ele>96.75</ele>
        <time>2017-04-07T08:07:41Z</time>
      </trkpt>
      <trkpt lat="48.29143" lon="2.59402">
        <ele>96.75</ele>
        <time>2017-04-07T08:07:47Z</time>
      </trkpt>
      <trkpt lat="48.29131" lon="2.59405">
        <ele>98.19</ele>
        <time>2017-04-07T08:07:57Z</time>
      </trkpt>
      <trkpt lat="48.29129" lon="2.59406">
        <ele>98.19</ele>
        <time>2017-04-07T08:07:59Z</time>
      </trkpt>
      <trkpt lat="48.2912" lon="2.59412">
        <ele>99.63</ele>
        <time>2017-04-07T08:08:10Z</time>
      </trkpt>
      <trkpt lat="48.29115" lon="2.59417">
        <ele>100.6</ele>
        <time>2017-04-07T08:08:21Z</time>
      </trkpt>
      <trkpt lat="48.29106" lon="2.59414">
        <ele>103</ele>
        <time>2017-04-07T08:08:35Z</time>
      </trkpt>
      <trkpt lat="48.29097" lon="2.59409">
        <ele>103.48</ele>
        <time>2017-04-07T08:08:50Z</time>
      </trkpt>
      <trkpt lat="48.29094" lon="2.59403">
        <ele>103</ele>
        <time>2017-04-07T08:08:59Z</time>
      </trkpt>
      <trkpt lat="48.29085" lon="2.5939">
        <ele>103</ele>
        <time>2017-04-07T08:09:12Z</time>
      </trkpt>
      <trkpt lat="48.29081" lon="2.59378">
        <ele>103.48</ele>
        <time>2017-04-07T08:09:23Z</time>
      </trkpt>
      <trkpt lat="48.29076" lon="2.59355">
        <ele>104.44</ele>
        <time>2017-04-07T08:09:38Z</time>
      </trkpt>
      <trkpt lat="48.29073" lon="2.59337">
        <ele>106.84</ele>
        <time>2017-04-07T08:09:50Z</time>
      </trkpt>
      <trkpt lat="48.29068" lon="2.59323">
        <ele>108.29</ele>
        <time>2017-04-07T08:10:02Z</time>
      </trkpt>
      <trkpt lat="48.29066" lon="2.59312">
        <ele>109.25</ele>
        <time>2017-04-07T08:10:12Z</time>
      </trkpt>
      <trkpt lat="48.29061" lon="2.59303">
        <ele>110.21</ele>
        <time>2017-04-07T08:10:23Z</time>
      </trkpt>
      <trkpt lat="48.29047" lon="2.59298">
        <ele>112.13</ele>
        <time>2017-04-07T08:10:40Z</time>
      </trkpt>
      <trkpt lat="48.29039" lon="2.59292">
        <ele>113.57</ele>
        <time>2017-04-07T08:10:54Z</time>
      </trkpt>
      <trkpt lat="48.29029" lon="2.59284">
        <ele>114.53</ele>
        <time>2017-04-07T08:11:10Z</time>
      </trkpt>
      <trkpt lat="48.29015" lon="2.59268">
        <ele>115.5</ele>
        <time>2017-04-07T08:11:24Z</time>
      </trkpt>
      <trkpt lat="48.29009" lon="2.59257">
        <ele>115.5</ele>
        <time>2017-04-07T08:11:36Z</time>
      </trkpt>
      <trkpt lat="48.29009" lon="2.59256">
        <ele>115.98</ele>
        <time>2017-04-07T08:11:37Z</time>
      </trkpt>
      <trkpt lat="48.29007" lon="2.59251">
        <ele>115.98</ele>
        <time>2017-04-07T08:11:41Z</time>
      </trkpt>
      <trkpt lat="48.29004" lon="2.59247">
        <ele>116.46</ele>
        <time>2017-04-07T08:11:45Z</time>
      </trkpt>
      <trkpt lat="48.29004" lon="2.59231">
        <ele>116.46</ele>
        <time>2017-04-07T08:11:55Z</time>
      </trkpt>
      <trkpt lat="48.29002" lon="2.59208">
        <ele>116.46</ele>
        <time>2017-04-07T08:12:09Z</time>
      </trkpt>
      <trkpt lat="48.29002" lon="2.59206">
        <ele>115.98</ele>
        <time>2017-04-07T08:12:11Z</time>
      </trkpt>
      <trkpt lat="48.28996" lon="2.59183">
        <ele>116.94</ele>
        <time>2017-04-07T08:12:24Z</time>
      </trkpt>
      <trkpt lat="48.28997" lon="2.59181">
        <ele>115.98</ele>
        <time>2017-04-07T08:12:25Z</time>
      </trkpt>
      <trkpt lat="48.28995" lon="2.59166">
        <ele>115.5</ele>
        <time>2017-04-07T08:12:31Z</time>
      </trkpt>
      <trkpt lat="48.28985" lon="2.59146">
        <ele>116.46</ele>
        <time>2017-04-07T08:12:44Z</time>
      </trkpt>
      <trkpt lat="48.28979" lon="2.59138">
        <ele>116.46</ele>
        <time>2017-04-07T08:12:53Z</time>
      </trkpt>
      <trkpt lat="48.28975" lon="2.59132">
        <ele>115.98</ele>
        <time>2017-04-07T08:12:58Z</time>
      </trkpt>
      <trkpt lat="48.28969" lon="2.59122">
        <ele>114.53</ele>
        <time>2017-04-07T08:13:08Z</time>
      </trkpt>
      <trkpt lat="48.28962" lon="2.59113">
        <ele>114.53</ele>
        <time>2017-04-07T08:13:18Z</time>
      </trkpt>
      <trkpt lat="48.28961" lon="2.59113">
        <ele>115.01</ele>
        <time>2017-04-07T08:13:19Z</time>
      </trkpt>
      <trkpt lat="48.28951" lon="2.59124">
        <ele>114.05</ele>
        <time>2017-04-07T08:13:31Z</time>
      </trkpt>
      <trkpt lat="48.28949" lon="2.59136">
        <ele>114.05</ele>
        <time>2017-04-07T08:13:40Z</time>
      </trkpt>
      <trkpt lat="48.28948" lon="2.59154">
        <ele>112.61</ele>
        <time>2017-04-07T08:13:51Z</time>
      </trkpt>
      <trkpt lat="48.28945" lon="2.59163">
        <ele>112.61</ele>
        <time>2017-04-07T08:13:59Z</time>
      </trkpt>
      <trkpt lat="48.28941" lon="2.5917">
        <ele>112.13</ele>
        <time>2017-04-07T08:14:05Z</time>
      </trkpt>
      <trkpt lat="48.28937" lon="2.59178">
        <ele>112.13</ele>
        <time>2017-04-07T08:14:10Z</time>
      </trkpt>
      <trkpt lat="48.28929" lon="2.59183">
        <ele>111.65</ele>
        <time>2017-04-07T08:14:14Z</time>
      </trkpt>
      <trkpt lat="48.2893" lon="2.59187">
        <ele>112.13</ele>
        <time>2017-04-07T08:14:16Z</time>
      </trkpt>
      <trkpt lat="48.28931" lon="2.59192">
        <ele>112.13</ele>
        <time>2017-04-07T08:14:18Z</time>
      </trkpt>
      <trkpt lat="48.2893" lon="2.59208">
        <ele>112.61</ele>
        <time>2017-04-07T08:14:28Z</time>
      </trkpt>
      <trkpt lat="48.2893" lon="2.59208">
        <ele>113.09</ele>
        <time>2017-04-07T08:14:29Z</time>
      </trkpt>
      <trkpt lat="48.28925" lon="2.59211">
        <ele>113.09</ele>
        <time>2017-04-07T08:14:34Z</time>
      </trkpt>
      <trkpt lat="48.28915" lon="2.59231">
        <ele>112.61</ele>
        <time>2017-04-07T08:14:47Z</time>
      </trkpt>
      <trkpt lat="48.2891" lon="2.59246">
        <ele>111.17</ele>
        <time>2017-04-07T08:14:58Z</time>
      </trkpt>
      <trkpt lat="48.28905" lon="2.59274">
        <ele>110.69</ele>
        <time>2017-04-07T08:15:09Z</time>
      </trkpt>
      <trkpt lat="48.28902" lon="2.59277">
        <ele>109.73</ele>
        <time>2017-04-07T08:15:11Z</time>
      </trkpt>
      <trkpt lat="48.28902" lon="2.59279">
        <ele>109.73</ele>
        <time>2017-04-07T08:15:14Z</time>
      </trkpt>
      <trkpt lat="48.28897" lon="2.59285">
        <ele>108.77</ele>
        <time>2017-04-07T08:15:28Z</time>
      </trkpt>
      <trkpt lat="48.28897" lon="2.59285">
        <ele>108.77</ele>
        <time>2017-04-07T08:15:30Z</time>
      </trkpt>
      <trkpt lat="48.28899" lon="2.59299">
        <ele>107.81</ele>
        <time>2017-04-07T08:15:38Z</time>
      </trkpt>
      <trkpt lat="48.28893" lon="2.59305">
        <ele>106.84</ele>
        <time>2017-04-07T08:15:46Z</time>
      </trkpt>
      <trkpt lat="48.28892" lon="2.5931">
        <ele>106.36</ele>
        <time>2017-04-07T08:15:48Z</time>
      </trkpt>
      <trkpt lat="48.28887" lon="2.59317">
        <ele>106.36</ele>
        <time>2017-04-07T08:15:59Z</time>
      </trkpt>
      <trkpt lat="48.28886" lon="2.59325">
        <ele>106.84</ele>
        <time>2017-04-07T08:16:12Z</time>
      </trkpt>
      <trkpt lat="48.28887" lon="2.59335">
        <ele>105.4</ele>
        <time>2017-04-07T08:16:28Z</time>
      </trkpt>
      <trkpt lat="48.28889" lon="2.59342">
        <ele>106.36</ele>
        <time>2017-04-07T08:16:51Z</time>
      </trkpt>
      <trkpt lat="48.28892" lon="2.59326">
        <ele>106.36</ele>
        <time>2017-04-07T08:17:03Z</time>
      </trkpt>
      <trkpt lat="48.289" lon="2.59322">
        <ele>105.88</ele>
        <time>2017-04-07T08:17:30Z</time>
      </trkpt>
      <trkpt lat="48.289" lon="2.59315">
        <ele>107.32</ele>
        <time>2017-04-07T08:17:41Z</time>
      </trkpt>
      <trkpt lat="48.28902" lon="2.59305">
        <ele>107.32</ele>
        <time>2017-04-07T08:17:51Z</time>
      </trkpt>
      <trkpt lat="48.289" lon="2.59302">
        <ele>107.81</ele>
        <time>2017-04-07T08:18:03Z</time>
      </trkpt>
      <trkpt lat="48.28903" lon="2.59293">
        <ele>108.77</ele>
        <time>2017-04-07T08:18:16Z</time>
      </trkpt>
      <trkpt lat="48.28908" lon="2.59282">
        <ele>110.21</ele>
        <time>2017-04-07T08:18:29Z</time>
      </trkpt>
      <trkpt lat="48.28909" lon="2.5928">
        <ele>109.73</ele>
        <time>2017-04-07T08:18:31Z</time>
      </trkpt>
      <trkpt lat="48.2891" lon="2.59275">
        <ele>110.69</ele>
        <time>2017-04-07T08:18:43Z</time>
      </trkpt>
      <trkpt lat="48.28912" lon="2.59268">
        <ele>110.69</ele>
        <time>2017-04-07T08:18:50Z</time>
      </trkpt>
      <trkpt lat="48.28913" lon="2.59262">
        <ele>110.69</ele>
        <time>2017-04-07T08:18:54Z</time>
      </trkpt>
      <trkpt lat="48.28916" lon="2.59247">
        <ele>112.61</ele>
        <time>2017-04-07T08:19:04Z</time>
      </trkpt>
      <trkpt lat="48.28921" lon="2.59238">
        <ele>113.09</ele>
        <time>2017-04-07T08:19:12Z</time>
      </trkpt>
      <trkpt lat="48.28924" lon="2.59234">
        <ele>113.09</ele>
        <time>2017-04-07T08:19:16Z</time>
      </trkpt>
      <trkpt lat="48.28933" lon="2.59211">
        <ele>112.61</ele>
        <time>2017-04-07T08:19:29Z</time>
      </trkpt>
      <trkpt lat="48.28939" lon="2.59196">
        <ele>112.13</ele>
        <time>2017-04-07T08:19:39Z</time>
      </trkpt>
      <trkpt lat="48.28945" lon="2.59185">
        <ele>112.61</ele>
        <time>2017-04-07T08:19:48Z</time>
      </trkpt>
      <trkpt lat="48.28948" lon="2.59175">
        <ele>113.09</ele>
        <time>2017-04-07T08:19:57Z</time>
      </trkpt>
      <trkpt lat="48.28948" lon="2.59172">
        <ele>113.09</ele>
        <time>2017-04-07T08:19:58Z</time>
      </trkpt>
      <trkpt lat="48.28948" lon="2.5917">
        <ele>113.09</ele>
        <time>2017-04-07T08:19:59Z</time>
      </trkpt>
      <trkpt lat="48.28949" lon="2.59156">
        <ele>113.57</ele>
        <time>2017-04-07T08:20:09Z</time>
      </trkpt>
      <trkpt lat="48.28949" lon="2.59153">
        <ele>113.57</ele>
        <time>2017-04-07T08:20:11Z</time>
      </trkpt>
      <trkpt lat="48.2895" lon="2.59151">
        <ele>113.57</ele>
        <time>2017-04-07T08:20:12Z</time>
      </trkpt>
      <trkpt lat="48.28951" lon="2.59143">
        <ele>114.53</ele>
        <time>2017-04-07T08:20:19Z</time>
      </trkpt>
      <trkpt lat="48.28954" lon="2.59125">
        <ele>114.05</ele>
        <time>2017-04-07T08:20:30Z</time>
      </trkpt>
      <trkpt lat="48.28954" lon="2.59123">
        <ele>114.53</ele>
        <time>2017-04-07T08:20:31Z</time>
      </trkpt>
      <trkpt lat="48.28954" lon="2.59122">
        <ele>114.53</ele>
        <time>2017-04-07T08:20:32Z</time>
      </trkpt>
      <trkpt lat="48.28955" lon="2.5912">
        <ele>114.53</ele>
        <time>2017-04-07T08:20:33Z</time>
      </trkpt>
      <trkpt lat="48.28961" lon="2.59109">
        <ele>115.01</ele>
        <time>2017-04-07T08:20:43Z</time>
      </trkpt>
      <trkpt lat="48.28963" lon="2.59107">
        <ele>115.01</ele>
        <time>2017-04-07T08:20:45Z</time>
      </trkpt>
      <trkpt lat="48.28964" lon="2.59106">
        <ele>114.53</ele>
        <time>2017-04-07T08:20:46Z</time>
      </trkpt>
      <trkpt lat="48.28965" lon="2.59104">
        <ele>114.53</ele>
        <time>2017-04-07T08:20:47Z</time>
      </trkpt>
      <trkpt lat="48.28966" lon="2.59103">
        <ele>114.05</ele>
        <time>2017-04-07T08:20:48Z</time>
      </trkpt>
      <trkpt lat="48.28967" lon="2.59098">
        <ele>114.53</ele>
        <time>2017-04-07T08:20:52Z</time>
      </trkpt>
      <trkpt lat="48.28968" lon="2.59096">
        <ele>114.53</ele>
        <time>2017-04-07T08:20:53Z</time>
      </trkpt>
      <trkpt lat="48.28969" lon="2.59094">
        <ele>114.05</ele>
        <time>2017-04-07T08:20:54Z</time>
      </trkpt>
      <trkpt lat="48.28969" lon="2.59079">
        <ele>114.05</ele>
        <time>2017-04-07T08:21:04Z</time>
      </trkpt>
      <trkpt lat="48.2897" lon="2.59072">
        <ele>114.53</ele>
        <time>2017-04-07T08:21:08Z</time>
      </trkpt>
      <trkpt lat="48.28971" lon="2.59063">
        <ele>114.53</ele>
        <time>2017-04-07T08:21:13Z</time>
      </trkpt>
      <trkpt lat="48.28971" lon="2.59061">
        <ele>114.05</ele>
        <time>2017-04-07T08:21:14Z</time>
      </trkpt>
      <trkpt lat="48.28971" lon="2.59059">
        <ele>114.53</ele>
        <time>2017-04-07T08:21:15Z</time>
      </trkpt>
      <trkpt lat="48.28971" lon="2.59054">
        <ele>114.53</ele>
        <time>2017-04-07T08:21:18Z</time>
      </trkpt>
      <trkpt lat="48.28969" lon="2.59045">
        <ele>115.5</ele>
        <time>2017-04-07T08:21:24Z</time>
      </trkpt>
      <trkpt lat="48.28975" lon="2.59024">
        <ele>115.5</ele>
        <time>2017-04-07T08:21:38Z</time>
      </trkpt>
      <trkpt lat="48.28976" lon="2.59012">
        <ele>116.46</ele>
        <time>2017-04-07T08:21:46Z</time>
      </trkpt>
      <trkpt lat="48.2898" lon="2.59007">
        <ele>116.46</ele>
        <time>2017-04-07T08:21:51Z</time>
      </trkpt>
      <trkpt lat="48.28982" lon="2.59006">
        <ele>116.46</ele>
        <time>2017-04-07T08:21:52Z</time>
      </trkpt>
      <trkpt lat="48.28983" lon="2.59006">
        <ele>116.94</ele>
        <time>2017-04-07T08:21:53Z</time>
      </trkpt>
      <trkpt lat="48.28987" lon="2.59005">
        <ele>116.46</ele>
        <time>2017-04-07T08:21:58Z</time>
      </trkpt>
      <trkpt lat="48.28989" lon="2.59005">
        <ele>116.46</ele>
        <time>2017-04-07T08:21:59Z</time>
      </trkpt>
      <trkpt lat="48.28996" lon="2.59">
        <ele>115.98</ele>
        <time>2017-04-07T08:22:11Z</time>
      </trkpt>
      <trkpt lat="48.28999" lon="2.58995">
        <ele>116.46</ele>
        <time>2017-04-07T08:22:15Z</time>
      </trkpt>
      <trkpt lat="48.29" lon="2.58993">
        <ele>116.46</ele>
        <time>2017-04-07T08:22:16Z</time>
      </trkpt>
      <trkpt lat="48.29002" lon="2.58992">
        <ele>116.46</ele>
        <time>2017-04-07T08:22:17Z</time>
      </trkpt>
      <trkpt lat="48.29006" lon="2.5899">
        <ele>116.46</ele>
        <time>2017-04-07T08:22:21Z</time>
      </trkpt>
      <trkpt lat="48.29007" lon="2.58988">
        <ele>116.46</ele>
        <time>2017-04-07T08:22:22Z</time>
      </trkpt>
      <trkpt lat="48.29009" lon="2.58986">
        <ele>115.98</ele>
        <time>2017-04-07T08:22:23Z</time>
      </trkpt>
      <trkpt lat="48.2901" lon="2.58984">
        <ele>115.98</ele>
        <time>2017-04-07T08:22:24Z</time>
      </trkpt>
      <trkpt lat="48.29012" lon="2.58979">
        <ele>115.98</ele>
        <time>2017-04-07T08:22:30Z</time>
      </trkpt>
      <trkpt lat="48.29011" lon="2.58973">
        <ele>116.46</ele>
        <time>2017-04-07T08:22:36Z</time>
      </trkpt>
      <trkpt lat="48.29012" lon="2.58968">
        <ele>116.94</ele>
        <time>2017-04-07T08:22:41Z</time>
      </trkpt>
      <trkpt lat="48.29012" lon="2.58966">
        <ele>116.94</ele>
        <time>2017-04-07T08:22:42Z</time>
      </trkpt>
      <trkpt lat="48.29013" lon="2.58964">
        <ele>116.46</ele>
        <time>2017-04-07T08:22:43Z</time>
      </trkpt>
      <trkpt lat="48.29018" lon="2.58962">
        <ele>116.46</ele>
        <time>2017-04-07T08:22:48Z</time>
      </trkpt>
      <trkpt lat="48.29025" lon="2.58968">
        <ele>115.98</ele>
        <time>2017-04-07T08:22:57Z</time>
      </trkpt>
      <trkpt lat="48.29031" lon="2.58974">
        <ele>115.01</ele>
        <time>2017-04-07T08:23:08Z</time>
      </trkpt>
      <trkpt lat="48.29033" lon="2.58975">
        <ele>114.05</ele>
        <time>2017-04-07T08:23:12Z</time>
      </trkpt>
      <trkpt lat="48.29035" lon="2.58975">
        <ele>114.05</ele>
        <time>2017-04-07T08:23:13Z</time>
      </trkpt>
      <trkpt lat="48.29044" lon="2.58976">
        <ele>112.13</ele>
        <time>2017-04-07T08:23:24Z</time>
      </trkpt>
      <trkpt lat="48.2905" lon="2.58977">
        <ele>110.21</ele>
        <time>2017-04-07T08:23:34Z</time>
      </trkpt>
      <trkpt lat="48.29055" lon="2.58981">
        <ele>106.84</ele>
        <time>2017-04-07T08:23:45Z</time>
      </trkpt>
      <trkpt lat="48.29065" lon="2.58982">
        <ele>104.92</ele>
        <time>2017-04-07T08:23:55Z</time>
      </trkpt>
      <trkpt lat="48.29076" lon="2.58983">
        <ele>103</ele>
        <time>2017-04-07T08:24:06Z</time>
      </trkpt>
      <trkpt lat="48.29085" lon="2.58978">
        <ele>100.6</ele>
        <time>2017-04-07T08:24:17Z</time>
      </trkpt>
      <trkpt lat="48.29099" lon="2.58966">
        <ele>99.63</ele>
        <time>2017-04-07T08:24:30Z</time>
      </trkpt>
      <trkpt lat="48.29103" lon="2.58964">
        <ele>96.27</ele>
        <time>2017-04-07T08:24:41Z</time>
      </trkpt>
      <trkpt lat="48.29111" lon="2.58962">
        <ele>93.39</ele>
        <time>2017-04-07T08:24:53Z</time>
      </trkpt>
      <trkpt lat="48.29118" lon="2.58963">
        <ele>91.46</ele>
        <time>2017-04-07T08:25:02Z</time>
      </trkpt>
      <trkpt lat="48.29123" lon="2.58962">
        <ele>90.02</ele>
        <time>2017-04-07T08:25:14Z</time>
      </trkpt>
      <trkpt lat="48.29124" lon="2.58962">
        <ele>89.54</ele>
        <time>2017-04-07T08:25:18Z</time>
      </trkpt>
      <trkpt lat="48.29125" lon="2.58964">
        <ele>89.54</ele>
        <time>2017-04-07T08:25:19Z</time>
      </trkpt>
      <trkpt lat="48.29126" lon="2.58964">
        <ele>88.58</ele>
        <time>2017-04-07T08:25:20Z</time>
      </trkpt>
      <trkpt lat="48.29133" lon="2.58966">
        <ele>88.1</ele>
        <time>2017-04-07T08:25:29Z</time>
      </trkpt>
      <trkpt lat="48.29139" lon="2.5897">
        <ele>85.69</ele>
        <time>2017-04-07T08:25:41Z</time>
      </trkpt>
      <trkpt lat="48.29144" lon="2.58971">
        <ele>87.14</ele>
        <time>2017-04-07T08:25:49Z</time>
      </trkpt>
      <trkpt lat="48.29149" lon="2.58968">
        <ele>86.66</ele>
        <time>2017-04-07T08:26:00Z</time>
      </trkpt>
      <trkpt lat="48.29149" lon="2.58966">
        <ele>86.18</ele>
        <time>2017-04-07T08:26:05Z</time>
      </trkpt>
      <trkpt lat="48.29157" lon="2.58963">
        <ele>85.21</ele>
        <time>2017-04-07T08:26:16Z</time>
      </trkpt>
      <trkpt lat="48.29162" lon="2.58961">
        <ele>85.21</ele>
        <time>2017-04-07T08:26:19Z</time>
      </trkpt>
      <trkpt lat="48.29171" lon="2.58956">
        <ele>84.73</ele>
        <time>2017-04-07T08:26:29Z</time>
      </trkpt>
      <trkpt lat="48.2918" lon="2.58953">
        <ele>83.77</ele>
        <time>2017-04-07T08:26:41Z</time>
      </trkpt>
      <trkpt lat="48.29186" lon="2.58954">
        <ele>84.25</ele>
        <time>2017-04-07T08:26:51Z</time>
      </trkpt>
      <trkpt lat="48.2919" lon="2.58948">
        <ele>84.73</ele>
        <time>2017-04-07T08:27:00Z</time>
      </trkpt>
      <trkpt lat="48.29187" lon="2.58934">
        <ele>85.21</ele>
        <time>2017-04-07T08:27:12Z</time>
      </trkpt>
      <trkpt lat="48.29184" lon="2.58927">
        <ele>85.21</ele>
        <time>2017-04-07T08:27:18Z</time>
      </trkpt>
      <trkpt lat="48.29178" lon="2.58909">
        <ele>87.14</ele>
        <time>2017-04-07T08:27:30Z</time>
      </trkpt>
      <trkpt lat="48.29175" lon="2.58894">
        <ele>87.62</ele>
        <time>2017-04-07T08:27:42Z</time>
      </trkpt>
      <trkpt lat="48.29174" lon="2.58887">
        <ele>88.1</ele>
        <time>2017-04-07T08:27:48Z</time>
      </trkpt>
      <trkpt lat="48.29167" lon="2.58868">
        <ele>89.06</ele>
        <time>2017-04-07T08:27:58Z</time>
      </trkpt>
      <trkpt lat="48.29166" lon="2.58867">
        <ele>89.54</ele>
        <time>2017-04-07T08:27:59Z</time>
      </trkpt>
      <trkpt lat="48.29162" lon="2.58858">
        <ele>90.02</ele>
        <time>2017-04-07T08:28:05Z</time>
      </trkpt>
      <trkpt lat="48.2916" lon="2.58851">
        <ele>90.98</ele>
        <time>2017-04-07T08:28:15Z</time>
      </trkpt>
      <trkpt lat="48.29158" lon="2.5885">
        <ele>90.5</ele>
        <time>2017-04-07T08:28:17Z</time>
      </trkpt>
      <trkpt lat="48.29147" lon="2.58841">
        <ele>92.42</ele>
        <time>2017-04-07T08:28:29Z</time>
      </trkpt>
      <trkpt lat="48.29146" lon="2.58839">
        <ele>92.42</ele>
        <time>2017-04-07T08:28:31Z</time>
      </trkpt>
      <trkpt lat="48.29143" lon="2.5883">
        <ele>95.31</ele>
        <time>2017-04-07T08:28:41Z</time>
      </trkpt>
      <trkpt lat="48.29139" lon="2.58818">
        <ele>97.23</ele>
        <time>2017-04-07T08:28:54Z</time>
      </trkpt>
      <trkpt lat="48.29135" lon="2.58815">
        <ele>97.71</ele>
        <time>2017-04-07T08:28:58Z</time>
      </trkpt>
      <trkpt lat="48.29127" lon="2.58809">
        <ele>99.15</ele>
        <time>2017-04-07T08:29:09Z</time>
      </trkpt>
      <trkpt lat="48.29125" lon="2.58801">
        <ele>100.6</ele>
        <time>2017-04-07T08:29:22Z</time>
      </trkpt>
      <trkpt lat="48.29126" lon="2.58795">
        <ele>103.96</ele>
        <time>2017-04-07T08:29:36Z</time>
      </trkpt>
      <trkpt lat="48.29126" lon="2.58788">
        <ele>104.92</ele>
        <time>2017-04-07T08:29:45Z</time>
      </trkpt>
      <trkpt lat="48.29126" lon="2.58783">
        <ele>106.84</ele>
        <time>2017-04-07T08:29:57Z</time>
      </trkpt>
      <trkpt lat="48.29124" lon="2.58778">
        <ele>107.32</ele>
        <time>2017-04-07T08:30:11Z</time>
      </trkpt>
      <trkpt lat="48.2912" lon="2.58774">
        <ele>109.25</ele>
        <time>2017-04-07T08:30:26Z</time>
      </trkpt>
      <trkpt lat="48.29118" lon="2.58771">
        <ele>109.25</ele>
        <time>2017-04-07T08:30:48Z</time>
      </trkpt>
      <trkpt lat="48.29121" lon="2.58767">
        <ele>109.25</ele>
        <time>2017-04-07T08:31:15Z</time>
      </trkpt>
      <trkpt lat="48.29123" lon="2.58768">
        <ele>109.25</ele>
        <time>2017-04-07T08:31:30Z</time>
      </trkpt>
      <trkpt lat="48.29118" lon="2.5877">
        <ele>109.73</ele>
        <time>2017-04-07T08:31:58Z</time>
      </trkpt>
      <trkpt lat="48.29116" lon="2.58773">
        <ele>108.77</ele>
        <time>2017-04-07T08:32:41Z</time>
      </trkpt>
      <trkpt lat="48.29126" lon="2.58771">
        <ele>110.21</ele>
        <time>2017-04-07T08:32:54Z</time>
      </trkpt>
      <trkpt lat="48.29128" lon="2.58768">
        <ele>112.13</ele>
        <time>2017-04-07T08:33:06Z</time>
      </trkpt>
      <trkpt lat="48.29127" lon="2.58766">
        <ele>113.09</ele>
        <time>2017-04-07T08:33:10Z</time>
      </trkpt>
      <trkpt lat="48.29129" lon="2.58764">
        <ele>114.05</ele>
        <time>2017-04-07T08:33:14Z</time>
      </trkpt>
      <trkpt lat="48.29127" lon="2.58754">
        <ele>115.5</ele>
        <time>2017-04-07T08:33:24Z</time>
      </trkpt>
      <trkpt lat="48.29127" lon="2.58745">
        <ele>115.5</ele>
        <time>2017-04-07T08:33:32Z</time>
      </trkpt>
      <trkpt lat="48.29126" lon="2.58743">
        <ele>115.5</ele>
        <time>2017-04-07T08:33:33Z</time>
      </trkpt>
      <trkpt lat="48.29121" lon="2.58734">
        <ele>115.98</ele>
        <time>2017-04-07T08:33:43Z</time>
      </trkpt>
      <trkpt lat="48.29119" lon="2.58728">
        <ele>116.94</ele>
        <time>2017-04-07T08:33:49Z</time>
      </trkpt>
      <trkpt lat="48.29113" lon="2.58719">
        <ele>116.46</ele>
        <time>2017-04-07T08:34:02Z</time>
      </trkpt>
      <trkpt lat="48.29112" lon="2.58714">
        <ele>116.46</ele>
        <time>2017-04-07T08:34:06Z</time>
      </trkpt>
      <trkpt lat="48.29112" lon="2.58702">
        <ele>115.98</ele>
        <time>2017-04-07T08:34:12Z</time>
      </trkpt>
      <trkpt lat="48.29115" lon="2.58693">
        <ele>115.98</ele>
        <time>2017-04-07T08:34:17Z</time>
      </trkpt>
      <trkpt lat="48.29116" lon="2.5868">
        <ele>115.01</ele>
        <time>2017-04-07T08:34:26Z</time>
      </trkpt>
      <trkpt lat="48.29117" lon="2.58674">
        <ele>115.5</ele>
        <time>2017-04-07T08:34:30Z</time>
      </trkpt>
      <trkpt lat="48.29114" lon="2.58662">
        <ele>115.01</ele>
        <time>2017-04-07T08:34:41Z</time>
      </trkpt>
      <trkpt lat="48.29114" lon="2.58661">
        <ele>115.01</ele>
        <time>2017-04-07T08:34:42Z</time>
      </trkpt>
      <trkpt lat="48.29117" lon="2.58647">
        <ele>114.53</ele>
        <time>2017-04-07T08:34:55Z</time>
      </trkpt>
      <trkpt lat="48.29117" lon="2.5864">
        <ele>112.61</ele>
        <time>2017-04-07T08:35:05Z</time>
      </trkpt>
      <trkpt lat="48.29118" lon="2.58641">
        <ele>111.65</ele>
        <time>2017-04-07T08:35:10Z</time>
      </trkpt>
      <trkpt lat="48.29122" lon="2.58638">
        <ele>111.17</ele>
        <time>2017-04-07T08:35:15Z</time>
      </trkpt>
      <trkpt lat="48.29133" lon="2.58631">
        <ele>109.73</ele>
        <time>2017-04-07T08:35:27Z</time>
      </trkpt>
      <trkpt lat="48.29133" lon="2.58626">
        <ele>109.25</ele>
        <time>2017-04-07T08:35:32Z</time>
      </trkpt>
      <trkpt lat="48.29132" lon="2.58621">
        <ele>108.77</ele>
        <time>2017-04-07T08:35:36Z</time>
      </trkpt>
      <trkpt lat="48.29132" lon="2.58613">
        <ele>107.32</ele>
        <time>2017-04-07T08:35:47Z</time>
      </trkpt>
      <trkpt lat="48.29133" lon="2.58606">
        <ele>105.4</ele>
        <time>2017-04-07T08:35:58Z</time>
      </trkpt>
      <trkpt lat="48.29131" lon="2.58595">
        <ele>103.48</ele>
        <time>2017-04-07T08:36:07Z</time>
      </trkpt>
      <trkpt lat="48.29135" lon="2.58588">
        <ele>101.56</ele>
        <time>2017-04-07T08:36:15Z</time>
      </trkpt>
      <trkpt lat="48.29135" lon="2.58583">
        <ele>100.11</ele>
        <time>2017-04-07T08:36:25Z</time>
      </trkpt>
      <trkpt lat="48.29136" lon="2.58577">
        <ele>98.19</ele>
        <time>2017-04-07T08:36:34Z</time>
      </trkpt>
      <trkpt lat="48.29137" lon="2.58568">
        <ele>95.31</ele>
        <time>2017-04-07T08:36:44Z</time>
      </trkpt>
      <trkpt lat="48.29138" lon="2.58563">
        <ele>94.35</ele>
        <time>2017-04-07T08:36:50Z</time>
      </trkpt>
      <trkpt lat="48.29139" lon="2.5856">
        <ele>93.39</ele>
        <time>2017-04-07T08:36:55Z</time>
      </trkpt>
      <trkpt lat="48.29144" lon="2.58551">
        <ele>90.98</ele>
        <time>2017-04-07T08:37:07Z</time>
      </trkpt>
      <trkpt lat="48.29152" lon="2.58552">
        <ele>87.62</ele>
        <time>2017-04-07T08:37:21Z</time>
      </trkpt>
      <trkpt lat="48.29161" lon="2.58553">
        <ele>87.62</ele>
        <time>2017-04-07T08:37:31Z</time>
      </trkpt>
      <trkpt lat="48.29166" lon="2.58552">
        <ele>86.66</ele>
        <time>2017-04-07T08:37:46Z</time>
      </trkpt>
      <trkpt lat="48.2917" lon="2.58543">
        <ele>87.62</ele>
        <time>2017-04-07T08:37:57Z</time>
      </trkpt>
      <trkpt lat="48.29174" lon="2.58536">
        <ele>87.14</ele>
        <time>2017-04-07T08:38:07Z</time>
      </trkpt>
      <trkpt lat="48.29172" lon="2.58526">
        <ele>87.62</ele>
        <time>2017-04-07T08:38:16Z</time>
      </trkpt>
      <trkpt lat="48.29174" lon="2.58509">
        <ele>87.14</ele>
        <time>2017-04-07T08:38:27Z</time>
      </trkpt>
      <trkpt lat="48.29176" lon="2.58505">
        <ele>87.14</ele>
        <time>2017-04-07T08:38:30Z</time>
      </trkpt>
      <trkpt lat="48.2917" lon="2.58494">
        <ele>88.58</ele>
        <time>2017-04-07T08:38:40Z</time>
      </trkpt>
      <trkpt lat="48.29165" lon="2.58487">
        <ele>88.1</ele>
        <time>2017-04-07T08:38:43Z</time>
      </trkpt>
      <trkpt lat="48.29153" lon="2.58474">
        <ele>88.58</ele>
        <time>2017-04-07T08:38:54Z</time>
      </trkpt>
      <trkpt lat="48.29144" lon="2.58464">
        <ele>88.58</ele>
        <time>2017-04-07T08:39:06Z</time>
      </trkpt>
      <trkpt lat="48.29144" lon="2.58464">
        <ele>89.06</ele>
        <time>2017-04-07T08:39:07Z</time>
      </trkpt>
      <trkpt lat="48.29142" lon="2.58462">
        <ele>89.54</ele>
        <time>2017-04-07T08:39:09Z</time>
      </trkpt>
      <trkpt lat="48.29133" lon="2.58453">
        <ele>90.5</ele>
        <time>2017-04-07T08:39:19Z</time>
      </trkpt>
      <trkpt lat="48.29119" lon="2.58436">
        <ele>91.46</ele>
        <time>2017-04-07T08:39:35Z</time>
      </trkpt>
      <trkpt lat="48.29112" lon="2.58426">
        <ele>92.42</ele>
        <time>2017-04-07T08:39:46Z</time>
      </trkpt>
      <trkpt lat="48.29106" lon="2.58422">
        <ele>92.42</ele>
        <time>2017-04-07T08:39:51Z</time>
      </trkpt>
      <trkpt lat="48.29097" lon="2.58412">
        <ele>93.39</ele>
        <time>2017-04-07T08:40:03Z</time>
      </trkpt>
      <trkpt lat="48.29095" lon="2.58406">
        <ele>93.39</ele>
        <time>2017-04-07T08:40:12Z</time>
      </trkpt>
      <trkpt lat="48.29095" lon="2.58398">
        <ele>93.87</ele>
        <time>2017-04-07T08:40:17Z</time>
      </trkpt>
      <trkpt lat="48.29099" lon="2.58391">
        <ele>93.87</ele>
        <time>2017-04-07T08:40:23Z</time>
      </trkpt>
      <trkpt lat="48.29101" lon="2.58387">
        <ele>93.87</ele>
        <time>2017-04-07T08:40:29Z</time>
      </trkpt>
      <trkpt lat="48.29113" lon="2.58375">
        <ele>93.39</ele>
        <time>2017-04-07T08:40:43Z</time>
      </trkpt>
      <trkpt lat="48.29122" lon="2.58371">
        <ele>92.9</ele>
        <time>2017-04-07T08:40:55Z</time>
      </trkpt>
      <trkpt lat="48.29134" lon="2.58368">
        <ele>93.87</ele>
        <time>2017-04-07T08:41:08Z</time>
      </trkpt>
      <trkpt lat="48.29142" lon="2.58365">
        <ele>94.35</ele>
        <time>2017-04-07T08:41:15Z</time>
      </trkpt>
      <trkpt lat="48.29155" lon="2.58342">
        <ele>94.83</ele>
        <time>2017-04-07T08:41:28Z</time>
      </trkpt>
      <trkpt lat="48.29162" lon="2.58332">
        <ele>94.83</ele>
        <time>2017-04-07T08:41:38Z</time>
      </trkpt>
      <trkpt lat="48.29167" lon="2.58313">
        <ele>95.79</ele>
        <time>2017-04-07T08:41:50Z</time>
      </trkpt>
      <trkpt lat="48.29169" lon="2.58305">
        <ele>96.27</ele>
        <time>2017-04-07T08:41:54Z</time>
      </trkpt>
      <trkpt lat="48.29171" lon="2.58296">
        <ele>96.27</ele>
        <time>2017-04-07T08:41:59Z</time>
      </trkpt>
      <trkpt lat="48.29172" lon="2.58284">
        <ele>97.23</ele>
        <time>2017-04-07T08:42:05Z</time>
      </trkpt>
      <trkpt lat="48.29172" lon="2.58281">
        <ele>97.23</ele>
        <time>2017-04-07T08:42:07Z</time>
      </trkpt>
      <trkpt lat="48.29171" lon="2.58264">
        <ele>96.75</ele>
        <time>2017-04-07T08:42:19Z</time>
      </trkpt>
      <trkpt lat="48.29169" lon="2.58249">
        <ele>97.23</ele>
        <time>2017-04-07T08:42:30Z</time>
      </trkpt>
      <trkpt lat="48.29166" lon="2.58237">
        <ele>98.19</ele>
        <time>2017-04-07T08:42:40Z</time>
      </trkpt>
      <trkpt lat="48.29168" lon="2.58223">
        <ele>99.15</ele>
        <time>2017-04-07T08:42:49Z</time>
      </trkpt>
      <trkpt lat="48.2917" lon="2.58204">
        <ele>100.11</ele>
        <time>2017-04-07T08:43:00Z</time>
      </trkpt>
      <trkpt lat="48.29168" lon="2.582">
        <ele>100.11</ele>
        <time>2017-04-07T08:43:03Z</time>
      </trkpt>
      <trkpt lat="48.29169" lon="2.58191">
        <ele>100.11</ele>
        <time>2017-04-07T08:43:08Z</time>
      </trkpt>
      <trkpt lat="48.2917" lon="2.58184">
        <ele>100.11</ele>
        <time>2017-04-07T08:43:11Z</time>
      </trkpt>
      <trkpt lat="48.29174" lon="2.58161">
        <ele>99.63</ele>
        <time>2017-04-07T08:43:23Z</time>
      </trkpt>
      <trkpt lat="48.29181" lon="2.58153">
        <ele>99.15</ele>
        <time>2017-04-07T08:43:32Z</time>
      </trkpt>
      <trkpt lat="48.29185" lon="2.58136">
        <ele>100.11</ele>
        <time>2017-04-07T08:43:44Z</time>
      </trkpt>
      <trkpt lat="48.29184" lon="2.58131">
        <ele>101.56</ele>
        <time>2017-04-07T08:43:52Z</time>
      </trkpt>
      <trkpt lat="48.29184" lon="2.58127">
        <ele>102.52</ele>
        <time>2017-04-07T08:44:01Z</time>
      </trkpt>
      <trkpt lat="48.2918" lon="2.58126">
        <ele>103.48</ele>
        <time>2017-04-07T08:44:12Z</time>
      </trkpt>
      <trkpt lat="48.29182" lon="2.58131">
        <ele>101.56</ele>
        <time>2017-04-07T08:44:20Z</time>
      </trkpt>
      <trkpt lat="48.29182" lon="2.58145">
        <ele>99.63</ele>
        <time>2017-04-07T08:44:30Z</time>
      </trkpt>
      <trkpt lat="48.29183" lon="2.58147">
        <ele>99.15</ele>
        <time>2017-04-07T08:44:31Z</time>
      </trkpt>
      <trkpt lat="48.29184" lon="2.58148">
        <ele>99.15</ele>
        <time>2017-04-07T08:44:32Z</time>
      </trkpt>
      <trkpt lat="48.29184" lon="2.58149">
        <ele>99.15</ele>
        <time>2017-04-07T08:44:33Z</time>
      </trkpt>
      <trkpt lat="48.29197" lon="2.58155">
        <ele>97.23</ele>
        <time>2017-04-07T08:44:46Z</time>
      </trkpt>
      <trkpt lat="48.29208" lon="2.58156">
        <ele>97.71</ele>
        <time>2017-04-07T08:44:58Z</time>
      </trkpt>
      <trkpt lat="48.2922" lon="2.5815">
        <ele>97.71</ele>
        <time>2017-04-07T08:45:11Z</time>
      </trkpt>
      <trkpt lat="48.29222" lon="2.5815">
        <ele>97.23</ele>
        <time>2017-04-07T08:45:13Z</time>
      </trkpt>
      <trkpt lat="48.29224" lon="2.58149">
        <ele>97.71</ele>
        <time>2017-04-07T08:45:14Z</time>
      </trkpt>
      <trkpt lat="48.29232" lon="2.58144">
        <ele>99.63</ele>
        <time>2017-04-07T08:45:24Z</time>
      </trkpt>
      <trkpt lat="48.29239" lon="2.58137">
        <ele>101.08</ele>
        <time>2017-04-07T08:45:34Z</time>
      </trkpt>
      <trkpt lat="48.29243" lon="2.58129">
        <ele>102.52</ele>
        <time>2017-04-07T08:45:39Z</time>
      </trkpt>
      <trkpt lat="48.29247" lon="2.58123">
        <ele>103.48</ele>
        <time>2017-04-07T08:45:48Z</time>
      </trkpt>
      <trkpt lat="48.29256" lon="2.58121">
        <ele>104.92</ele>
        <time>2017-04-07T08:46:02Z</time>
      </trkpt>
      <trkpt lat="48.29257" lon="2.58122">
        <ele>104.44</ele>
        <time>2017-04-07T08:46:03Z</time>
      </trkpt>
      <trkpt lat="48.29261" lon="2.58128">
        <ele>103.96</ele>
        <time>2017-04-07T08:46:12Z</time>
      </trkpt>
      <trkpt lat="48.29261" lon="2.58129">
        <ele>103.96</ele>
        <time>2017-04-07T08:46:13Z</time>
      </trkpt>
      <trkpt lat="48.29266" lon="2.58126">
        <ele>103.96</ele>
        <time>2017-04-07T08:46:23Z</time>
      </trkpt>
      <trkpt lat="48.29269" lon="2.58125">
        <ele>104.44</ele>
        <time>2017-04-07T08:46:35Z</time>
      </trkpt>
      <trkpt lat="48.2927" lon="2.58126">
        <ele>104.44</ele>
        <time>2017-04-07T08:46:51Z</time>
      </trkpt>
      <trkpt lat="48.2927" lon="2.58129">
        <ele>104.44</ele>
        <time>2017-04-07T08:47:18Z</time>
      </trkpt>
      <trkpt lat="48.29271" lon="2.58131">
        <ele>104.44</ele>
        <time>2017-04-07T08:47:32Z</time>
      </trkpt>
      <trkpt lat="48.29272" lon="2.58131">
        <ele>103.96</ele>
        <time>2017-04-07T08:47:33Z</time>
      </trkpt>
      <trkpt lat="48.29285" lon="2.58134">
        <ele>103.48</ele>
        <time>2017-04-07T08:47:45Z</time>
      </trkpt>
      <trkpt lat="48.29299" lon="2.58127">
        <ele>103.96</ele>
        <time>2017-04-07T08:47:58Z</time>
      </trkpt>
      <trkpt lat="48.2931" lon="2.58116">
        <ele>102.52</ele>
        <time>2017-04-07T08:48:11Z</time>
      </trkpt>
      <trkpt lat="48.29317" lon="2.58108">
        <ele>102.04</ele>
        <time>2017-04-07T08:48:19Z</time>
      </trkpt>
      <trkpt lat="48.29318" lon="2.58107">
        <ele>102.52</ele>
        <time>2017-04-07T08:48:21Z</time>
      </trkpt>
      <trkpt lat="48.29323" lon="2.58096">
        <ele>102.04</ele>
        <time>2017-04-07T08:48:28Z</time>
      </trkpt>
      <trkpt lat="48.29329" lon="2.58081">
        <ele>101.56</ele>
        <time>2017-04-07T08:48:38Z</time>
      </trkpt>
      <trkpt lat="48.29332" lon="2.58072">
        <ele>102.04</ele>
        <time>2017-04-07T08:48:48Z</time>
      </trkpt>
      <trkpt lat="48.29334" lon="2.58066">
        <ele>102.04</ele>
        <time>2017-04-07T08:48:55Z</time>
      </trkpt>
      <trkpt lat="48.29341" lon="2.58059">
        <ele>101.08</ele>
        <time>2017-04-07T08:49:06Z</time>
      </trkpt>
      <trkpt lat="48.29343" lon="2.58059">
        <ele>99.63</ele>
        <time>2017-04-07T08:49:10Z</time>
      </trkpt>
      <trkpt lat="48.29348" lon="2.5806">
        <ele>98.19</ele>
        <time>2017-04-07T08:49:19Z</time>
      </trkpt>
      <trkpt lat="48.29352" lon="2.5805">
        <ele>96.27</ele>
        <time>2017-04-07T08:49:30Z</time>
      </trkpt>
      <trkpt lat="48.29352" lon="2.58043">
        <ele>96.27</ele>
        <time>2017-04-07T08:49:35Z</time>
      </trkpt>
      <trkpt lat="48.29353" lon="2.58038">
        <ele>95.79</ele>
        <time>2017-04-07T08:49:37Z</time>
      </trkpt>
      <trkpt lat="48.29349" lon="2.58027">
        <ele>95.79</ele>
        <time>2017-04-07T08:49:48Z</time>
      </trkpt>
      <trkpt lat="48.29348" lon="2.58025">
        <ele>95.31</ele>
        <time>2017-04-07T08:49:49Z</time>
      </trkpt>
      <trkpt lat="48.29346" lon="2.58022">
        <ele>95.31</ele>
        <time>2017-04-07T08:49:51Z</time>
      </trkpt>
      <trkpt lat="48.29346" lon="2.58015">
        <ele>96.27</ele>
        <time>2017-04-07T08:49:55Z</time>
      </trkpt>
      <trkpt lat="48.29344" lon="2.58005">
        <ele>95.31</ele>
        <time>2017-04-07T08:50:03Z</time>
      </trkpt>
      <trkpt lat="48.29348" lon="2.5799">
        <ele>93.39</ele>
        <time>2017-04-07T08:50:15Z</time>
      </trkpt>
      <trkpt lat="48.29351" lon="2.57976">
        <ele>91.46</ele>
        <time>2017-04-07T08:50:25Z</time>
      </trkpt>
      <trkpt lat="48.29357" lon="2.57973">
        <ele>89.54</ele>
        <time>2017-04-07T08:50:34Z</time>
      </trkpt>
      <trkpt lat="48.29363" lon="2.57967">
        <ele>87.62</ele>
        <time>2017-04-07T08:50:47Z</time>
      </trkpt>
      <trkpt lat="48.29365" lon="2.57965">
        <ele>86.66</ele>
        <time>2017-04-07T08:50:50Z</time>
      </trkpt>
      <trkpt lat="48.29375" lon="2.57963">
        <ele>85.69</ele>
        <time>2017-04-07T08:51:01Z</time>
      </trkpt>
      <trkpt lat="48.29397" lon="2.57948">
        <ele>85.69</ele>
        <time>2017-04-07T08:51:16Z</time>
      </trkpt>
      <trkpt lat="48.29419" lon="2.57939">
        <ele>85.21</ele>
        <time>2017-04-07T08:51:31Z</time>
      </trkpt>
      <trkpt lat="48.29422" lon="2.57936">
        <ele>86.18</ele>
        <time>2017-04-07T08:51:38Z</time>
      </trkpt>
      <trkpt lat="48.29422" lon="2.57928">
        <ele>86.18</ele>
        <time>2017-04-07T08:51:44Z</time>
      </trkpt>
      <trkpt lat="48.29427" lon="2.57921">
        <ele>86.66</ele>
        <time>2017-04-07T08:51:50Z</time>
      </trkpt>
      <trkpt lat="48.29435" lon="2.57917">
        <ele>88.1</ele>
        <time>2017-04-07T08:52:03Z</time>
      </trkpt>
      <trkpt lat="48.29439" lon="2.57928">
        <ele>88.1</ele>
        <time>2017-04-07T08:52:14Z</time>
      </trkpt>
      <trkpt lat="48.29442" lon="2.57928">
        <ele>88.58</ele>
        <time>2017-04-07T08:52:16Z</time>
      </trkpt>
      <trkpt lat="48.29448" lon="2.57932">
        <ele>88.1</ele>
        <time>2017-04-07T08:52:28Z</time>
      </trkpt>
      <trkpt lat="48.29455" lon="2.57951">
        <ele>87.14</ele>
        <time>2017-04-07T08:52:41Z</time>
      </trkpt>
      <trkpt lat="48.29462" lon="2.57955">
        <ele>88.1</ele>
        <time>2017-04-07T08:52:46Z</time>
      </trkpt>
      <trkpt lat="48.29477" lon="2.57961">
        <ele>87.62</ele>
        <time>2017-04-07T08:52:54Z</time>
      </trkpt>
      <trkpt lat="48.29488" lon="2.57966">
        <ele>88.1</ele>
        <time>2017-04-07T08:52:59Z</time>
      </trkpt>
      <trkpt lat="48.29491" lon="2.57964">
        <ele>89.06</ele>
        <time>2017-04-07T08:53:03Z</time>
      </trkpt>
      <trkpt lat="48.29495" lon="2.57963">
        <ele>89.06</ele>
        <time>2017-04-07T08:53:07Z</time>
      </trkpt>
      <trkpt lat="48.295" lon="2.57957">
        <ele>89.06</ele>
        <time>2017-04-07T08:53:13Z</time>
      </trkpt>
      <trkpt lat="48.29505" lon="2.57942">
        <ele>89.06</ele>
        <time>2017-04-07T08:53:22Z</time>
      </trkpt>
      <trkpt lat="48.29506" lon="2.57934">
        <ele>89.06</ele>
        <time>2017-04-07T08:53:28Z</time>
      </trkpt>
      <trkpt lat="48.29508" lon="2.57926">
        <ele>89.06</ele>
        <time>2017-04-07T08:53:35Z</time>
      </trkpt>
      <trkpt lat="48.29501" lon="2.5791">
        <ele>89.06</ele>
        <time>2017-04-07T08:53:46Z</time>
      </trkpt>
      <trkpt lat="48.29503" lon="2.5789">
        <ele>89.54</ele>
        <time>2017-04-07T08:53:58Z</time>
      </trkpt>
      <trkpt lat="48.29501" lon="2.57875">
        <ele>91.94</ele>
        <time>2017-04-07T08:54:10Z</time>
      </trkpt>
      <trkpt lat="48.29503" lon="2.5787">
        <ele>91.94</ele>
        <time>2017-04-07T08:54:17Z</time>
      </trkpt>
      <trkpt lat="48.29506" lon="2.57863">
        <ele>90.5</ele>
        <time>2017-04-07T08:54:24Z</time>
      </trkpt>
      <trkpt lat="48.29507" lon="2.57856">
        <ele>90.98</ele>
        <time>2017-04-07T08:54:30Z</time>
      </trkpt>
      <trkpt lat="48.29512" lon="2.57847">
        <ele>90.98</ele>
        <time>2017-04-07T08:54:39Z</time>
      </trkpt>
      <trkpt lat="48.29514" lon="2.57825">
        <ele>92.9</ele>
        <time>2017-04-07T08:54:52Z</time>
      </trkpt>
      <trkpt lat="48.29519" lon="2.57811">
        <ele>95.31</ele>
        <time>2017-04-07T08:55:03Z</time>
      </trkpt>
      <trkpt lat="48.29526" lon="2.57793">
        <ele>96.27</ele>
        <time>2017-04-07T08:55:16Z</time>
      </trkpt>
      <trkpt lat="48.2953" lon="2.57789">
        <ele>96.75</ele>
        <time>2017-04-07T08:55:20Z</time>
      </trkpt>
      <trkpt lat="48.29539" lon="2.57778">
        <ele>97.71</ele>
        <time>2017-04-07T08:55:32Z</time>
      </trkpt>
      <trkpt lat="48.2955" lon="2.5777">
        <ele>98.19</ele>
        <time>2017-04-07T08:55:45Z</time>
      </trkpt>
      <trkpt lat="48.29557" lon="2.57763">
        <ele>99.15</ele>
        <time>2017-04-07T08:55:53Z</time>
      </trkpt>
      <trkpt lat="48.29567" lon="2.57754">
        <ele>100.6</ele>
        <time>2017-04-07T08:56:05Z</time>
      </trkpt>
      <trkpt lat="48.29576" lon="2.57749">
        <ele>102.52</ele>
        <time>2017-04-07T08:56:16Z</time>
      </trkpt>
      <trkpt lat="48.29583" lon="2.57751">
        <ele>102.04</ele>
        <time>2017-04-07T08:56:27Z</time>
      </trkpt>
      <trkpt lat="48.29585" lon="2.57752">
        <ele>102.04</ele>
        <time>2017-04-07T08:56:29Z</time>
      </trkpt>
      <trkpt lat="48.29591" lon="2.57758">
        <ele>102.04</ele>
        <time>2017-04-07T08:56:36Z</time>
      </trkpt>
      <trkpt lat="48.29595" lon="2.57767">
        <ele>102.04</ele>
        <time>2017-04-07T08:56:47Z</time>
      </trkpt>
      <trkpt lat="48.29598" lon="2.57767">
        <ele>101.56</ele>
        <time>2017-04-07T08:56:53Z</time>
      </trkpt>
      <trkpt lat="48.29604" lon="2.57765">
        <ele>100.11</ele>
        <time>2017-04-07T08:57:01Z</time>
      </trkpt>
      <trkpt lat="48.29607" lon="2.57761">
        <ele>99.63</ele>
        <time>2017-04-07T08:57:06Z</time>
      </trkpt>
      <trkpt lat="48.29616" lon="2.57764">
        <ele>99.63</ele>
        <time>2017-04-07T08:57:14Z</time>
      </trkpt>
      <trkpt lat="48.29627" lon="2.57782">
        <ele>99.63</ele>
        <time>2017-04-07T08:57:26Z</time>
      </trkpt>
      <trkpt lat="48.29633" lon="2.57795">
        <ele>98.67</ele>
        <time>2017-04-07T08:57:37Z</time>
      </trkpt>
      <trkpt lat="48.29641" lon="2.57813">
        <ele>97.71</ele>
        <time>2017-04-07T08:57:48Z</time>
      </trkpt>
      <trkpt lat="48.29647" lon="2.57827">
        <ele>95.79</ele>
        <time>2017-04-07T08:58:01Z</time>
      </trkpt>
      <trkpt lat="48.29649" lon="2.5783">
        <ele>95.31</ele>
        <time>2017-04-07T08:58:03Z</time>
      </trkpt>
      <trkpt lat="48.29658" lon="2.5784">
        <ele>94.83</ele>
        <time>2017-04-07T08:58:16Z</time>
      </trkpt>
      <trkpt lat="48.29661" lon="2.57838">
        <ele>96.75</ele>
        <time>2017-04-07T08:58:27Z</time>
      </trkpt>
      <trkpt lat="48.29669" lon="2.57838">
        <ele>99.15</ele>
        <time>2017-04-07T08:58:39Z</time>
      </trkpt>
      <trkpt lat="48.29674" lon="2.57838">
        <ele>101.08</ele>
        <time>2017-04-07T08:58:49Z</time>
      </trkpt>
      <trkpt lat="48.29678" lon="2.57841">
        <ele>103</ele>
        <time>2017-04-07T08:58:56Z</time>
      </trkpt>
      <trkpt lat="48.29686" lon="2.57852">
        <ele>103.96</ele>
        <time>2017-04-07T08:59:08Z</time>
      </trkpt>
      <trkpt lat="48.29693" lon="2.5786">
        <ele>105.88</ele>
        <time>2017-04-07T08:59:19Z</time>
      </trkpt>
      <trkpt lat="48.29704" lon="2.5787">
        <ele>106.84</ele>
        <time>2017-04-07T08:59:30Z</time>
      </trkpt>
      <trkpt lat="48.29707" lon="2.57874">
        <ele>106.84</ele>
        <time>2017-04-07T08:59:33Z</time>
      </trkpt>
      <trkpt lat="48.29713" lon="2.57887">
        <ele>106.36</ele>
        <time>2017-04-07T08:59:45Z</time>
      </trkpt>
      <trkpt lat="48.29715" lon="2.57895">
        <ele>106.84</ele>
        <time>2017-04-07T08:59:51Z</time>
      </trkpt>
      <trkpt lat="48.29719" lon="2.57898">
        <ele>107.32</ele>
        <time>2017-04-07T08:59:56Z</time>
      </trkpt>
      <trkpt lat="48.29729" lon="2.57906">
        <ele>106.36</ele>
        <time>2017-04-07T09:00:07Z</time>
      </trkpt>
      <trkpt lat="48.29734" lon="2.57917">
        <ele>104.44</ele>
        <time>2017-04-07T09:00:18Z</time>
      </trkpt>
      <trkpt lat="48.2974" lon="2.57927">
        <ele>101.08</ele>
        <time>2017-04-07T09:00:31Z</time>
      </trkpt>
      <trkpt lat="48.29748" lon="2.57936">
        <ele>97.71</ele>
        <time>2017-04-07T09:00:44Z</time>
      </trkpt>
      <trkpt lat="48.29749" lon="2.57939">
        <ele>96.27</ele>
        <time>2017-04-07T09:00:50Z</time>
      </trkpt>
      <trkpt lat="48.29753" lon="2.5796">
        <ele>93.87</ele>
        <time>2017-04-07T09:01:00Z</time>
      </trkpt>
      <trkpt lat="48.29753" lon="2.5796">
        <ele>94.35</ele>
        <time>2017-04-07T09:01:03Z</time>
      </trkpt>
      <trkpt lat="48.29748" lon="2.57971">
        <ele>91.46</ele>
        <time>2017-04-07T09:01:14Z</time>
      </trkpt>
      <trkpt lat="48.29741" lon="2.57979">
        <ele>89.54</ele>
        <time>2017-04-07T09:01:24Z</time>
      </trkpt>
      <trkpt lat="48.29739" lon="2.57981">
        <ele>89.54</ele>
        <time>2017-04-07T09:01:26Z</time>
      </trkpt>
      <trkpt lat="48.29735" lon="2.57985">
        <ele>89.54</ele>
        <time>2017-04-07T09:01:30Z</time>
      </trkpt>
      <trkpt lat="48.29724" lon="2.57996">
        <ele>89.06</ele>
        <time>2017-04-07T09:01:42Z</time>
      </trkpt>
      <trkpt lat="48.29724" lon="2.57997">
        <ele>89.54</ele>
        <time>2017-04-07T09:01:53Z</time>
      </trkpt>
      <trkpt lat="48.29711" lon="2.58">
        <ele>87.62</ele>
        <time>2017-04-07T09:02:06Z</time>
      </trkpt>
      <trkpt lat="48.29699" lon="2.58004">
        <ele>86.18</ele>
        <time>2017-04-07T09:02:15Z</time>
      </trkpt>
      <trkpt lat="48.29694" lon="2.58008">
        <ele>85.21</ele>
        <time>2017-04-07T09:02:19Z</time>
      </trkpt>
      <trkpt lat="48.29689" lon="2.58014">
        <ele>86.18</ele>
        <time>2017-04-07T09:02:25Z</time>
      </trkpt>
      <trkpt lat="48.29682" lon="2.5802">
        <ele>85.69</ele>
        <time>2017-04-07T09:02:31Z</time>
      </trkpt>
      <trkpt lat="48.29679" lon="2.58038">
        <ele>85.69</ele>
        <time>2017-04-07T09:02:42Z</time>
      </trkpt>
      <trkpt lat="48.29679" lon="2.58041">
        <ele>85.21</ele>
        <time>2017-04-07T09:02:44Z</time>
      </trkpt>
      <trkpt lat="48.29681" lon="2.5806">
        <ele>85.21</ele>
        <time>2017-04-07T09:02:55Z</time>
      </trkpt>
      <trkpt lat="48.29683" lon="2.58064">
        <ele>85.21</ele>
        <time>2017-04-07T09:02:58Z</time>
      </trkpt>
      <trkpt lat="48.29685" lon="2.58091">
        <ele>85.21</ele>
        <time>2017-04-07T09:03:12Z</time>
      </trkpt>
      <trkpt lat="48.2969" lon="2.58113">
        <ele>85.21</ele>
        <time>2017-04-07T09:03:23Z</time>
      </trkpt>
      <trkpt lat="48.29694" lon="2.58137">
        <ele>85.21</ele>
        <time>2017-04-07T09:03:35Z</time>
      </trkpt>
      <trkpt lat="48.29698" lon="2.58157">
        <ele>84.73</ele>
        <time>2017-04-07T09:03:48Z</time>
      </trkpt>
      <trkpt lat="48.29702" lon="2.58185">
        <ele>84.73</ele>
        <time>2017-04-07T09:04:00Z</time>
      </trkpt>
      <trkpt lat="48.29701" lon="2.58205">
        <ele>84.73</ele>
        <time>2017-04-07T09:04:10Z</time>
      </trkpt>
      <trkpt lat="48.29701" lon="2.58206">
        <ele>84.25</ele>
        <time>2017-04-07T09:04:11Z</time>
      </trkpt>
      <trkpt lat="48.29696" lon="2.58214">
        <ele>84.73</ele>
        <time>2017-04-07T09:04:15Z</time>
      </trkpt>
      <trkpt lat="48.29685" lon="2.58223">
        <ele>84.25</ele>
        <time>2017-04-07T09:04:26Z</time>
      </trkpt>
      <trkpt lat="48.29675" lon="2.58226">
        <ele>83.77</ele>
        <time>2017-04-07T09:04:38Z</time>
      </trkpt>
      <trkpt lat="48.29672" lon="2.5825">
        <ele>83.77</ele>
        <time>2017-04-07T09:04:50Z</time>
      </trkpt>
      <trkpt lat="48.29676" lon="2.5826">
        <ele>82.81</ele>
        <time>2017-04-07T09:04:57Z</time>
      </trkpt>
      <trkpt lat="48.29684" lon="2.58273">
        <ele>83.29</ele>
        <time>2017-04-07T09:05:08Z</time>
      </trkpt>
      <trkpt lat="48.297" lon="2.5829">
        <ele>83.29</ele>
        <time>2017-04-07T09:05:22Z</time>
      </trkpt>
      <trkpt lat="48.29701" lon="2.58292">
        <ele>82.33</ele>
        <time>2017-04-07T09:05:26Z</time>
      </trkpt>
      <trkpt lat="48.29712" lon="2.58313">
        <ele>82.81</ele>
        <time>2017-04-07T09:05:41Z</time>
      </trkpt>
      <trkpt lat="48.29724" lon="2.58329">
        <ele>81.85</ele>
        <time>2017-04-07T09:05:54Z</time>
      </trkpt>
      <trkpt lat="48.29738" lon="2.58341">
        <ele>81.37</ele>
        <time>2017-04-07T09:06:07Z</time>
      </trkpt>
      <trkpt lat="48.29751" lon="2.58357">
        <ele>81.37</ele>
        <time>2017-04-07T09:06:21Z</time>
      </trkpt>
      <trkpt lat="48.29764" lon="2.58373">
        <ele>81.37</ele>
        <time>2017-04-07T09:06:33Z</time>
      </trkpt>
      <trkpt lat="48.29773" lon="2.58388">
        <ele>81.37</ele>
        <time>2017-04-07T09:06:46Z</time>
      </trkpt>
      <trkpt lat="48.29786" lon="2.58403">
        <ele>80.41</ele>
        <time>2017-04-07T09:06:59Z</time>
      </trkpt>
      <trkpt lat="48.29794" lon="2.58414">
        <ele>80.89</ele>
        <time>2017-04-07T09:07:10Z</time>
      </trkpt>
      <trkpt lat="48.29806" lon="2.58432">
        <ele>80.89</ele>
        <time>2017-04-07T09:07:23Z</time>
      </trkpt>
      <trkpt lat="48.29813" lon="2.58447">
        <ele>81.37</ele>
        <time>2017-04-07T09:07:36Z</time>
      </trkpt>
      <trkpt lat="48.29821" lon="2.5846">
        <ele>81.85</ele>
        <time>2017-04-07T09:07:47Z</time>
      </trkpt>
      <trkpt lat="48.29827" lon="2.58474">
        <ele>82.33</ele>
        <time>2017-04-07T09:07:56Z</time>
      </trkpt>
      <trkpt lat="48.2984" lon="2.58484">
        <ele>81.85</ele>
        <time>2017-04-07T09:08:09Z</time>
      </trkpt>
      <trkpt lat="48.29852" lon="2.58494">
        <ele>81.37</ele>
        <time>2017-04-07T09:08:21Z</time>
      </trkpt>
      <trkpt lat="48.29863" lon="2.58507">
        <ele>81.37</ele>
        <time>2017-04-07T09:08:36Z</time>
      </trkpt>
      <trkpt lat="48.29865" lon="2.58511">
        <ele>81.37</ele>
        <time>2017-04-07T09:08:40Z</time>
      </trkpt>
      <trkpt lat="48.2988" lon="2.58534">
        <ele>81.37</ele>
        <time>2017-04-07T09:08:56Z</time>
      </trkpt>
      <trkpt lat="48.29894" lon="2.58544">
        <ele>80.41</ele>
        <time>2017-04-07T09:09:10Z</time>
      </trkpt>
      <trkpt lat="48.29896" lon="2.58544">
        <ele>80.41</ele>
        <time>2017-04-07T09:09:11Z</time>
      </trkpt>
      <trkpt lat="48.29902" lon="2.58549">
        <ele>80.89</ele>
        <time>2017-04-07T09:09:17Z</time>
      </trkpt>
      <trkpt lat="48.29911" lon="2.58563">
        <ele>79.93</ele>
        <time>2017-04-07T09:09:27Z</time>
      </trkpt>
      <trkpt lat="48.29924" lon="2.58568">
        <ele>79.45</ele>
        <time>2017-04-07T09:09:39Z</time>
      </trkpt>
      <trkpt lat="48.29928" lon="2.58569">
        <ele>78.48</ele>
        <time>2017-04-07T09:09:44Z</time>
      </trkpt>
      <trkpt lat="48.29934" lon="2.58566">
        <ele>78</ele>
        <time>2017-04-07T09:09:48Z</time>
      </trkpt>
      <trkpt lat="48.29941" lon="2.58559">
        <ele>78.48</ele>
        <time>2017-04-07T09:09:54Z</time>
      </trkpt>
      <trkpt lat="48.29953" lon="2.58552">
        <ele>78.97</ele>
        <time>2017-04-07T09:10:08Z</time>
      </trkpt>
      <trkpt lat="48.29964" lon="2.58541">
        <ele>78.48</ele>
        <time>2017-04-07T09:10:21Z</time>
      </trkpt>
      <trkpt lat="48.29967" lon="2.58535">
        <ele>78</ele>
        <time>2017-04-07T09:10:35Z</time>
      </trkpt>
      <trkpt lat="48.29964" lon="2.58531">
        <ele>78.48</ele>
        <time>2017-04-07T09:10:49Z</time>
      </trkpt>
      <trkpt lat="48.29966" lon="2.5853">
        <ele>78.97</ele>
        <time>2017-04-07T09:11:10Z</time>
      </trkpt>
      <trkpt lat="48.29965" lon="2.58525">
        <ele>78.97</ele>
        <time>2017-04-07T09:11:30Z</time>
      </trkpt>
      <trkpt lat="48.29966" lon="2.58522">
        <ele>78.97</ele>
        <time>2017-04-07T09:11:59Z</time>
      </trkpt>
      <trkpt lat="48.29966" lon="2.58521">
        <ele>78.97</ele>
        <time>2017-04-07T09:12:03Z</time>
      </trkpt>
      <trkpt lat="48.29973" lon="2.58531">
        <ele>78.48</ele>
        <time>2017-04-07T09:12:11Z</time>
      </trkpt>
      <trkpt lat="48.2998" lon="2.58525">
        <ele>78.48</ele>
        <time>2017-04-07T09:12:21Z</time>
      </trkpt>
      <trkpt lat="48.29984" lon="2.5852">
        <ele>78</ele>
        <time>2017-04-07T09:12:32Z</time>
      </trkpt>
      <trkpt lat="48.29991" lon="2.58504">
        <ele>77.52</ele>
        <time>2017-04-07T09:12:44Z</time>
      </trkpt>
      <trkpt lat="48.29999" lon="2.58496">
        <ele>78</ele>
        <time>2017-04-07T09:12:53Z</time>
      </trkpt>
      <trkpt lat="48.30002" lon="2.58493">
        <ele>77.52</ele>
        <time>2017-04-07T09:12:57Z</time>
      </trkpt>
      <trkpt lat="48.30006" lon="2.58488">
        <ele>78</ele>
        <time>2017-04-07T09:13:01Z</time>
      </trkpt>
      <trkpt lat="48.30015" lon="2.58478">
        <ele>78.48</ele>
        <time>2017-04-07T09:13:12Z</time>
      </trkpt>
      <trkpt lat="48.30022" lon="2.58468">
        <ele>79.45</ele>
        <time>2017-04-07T09:13:20Z</time>
      </trkpt>
      <trkpt lat="48.30023" lon="2.58466">
        <ele>79.45</ele>
        <time>2017-04-07T09:13:21Z</time>
      </trkpt>
      <trkpt lat="48.30036" lon="2.58466">
        <ele>79.45</ele>
        <time>2017-04-07T09:13:36Z</time>
      </trkpt>
      <trkpt lat="48.30038" lon="2.58466">
        <ele>78.97</ele>
        <time>2017-04-07T09:13:39Z</time>
      </trkpt>
      <trkpt lat="48.30039" lon="2.58466">
        <ele>79.45</ele>
        <time>2017-04-07T09:13:40Z</time>
      </trkpt>
      <trkpt lat="48.30048" lon="2.58466">
        <ele>78.97</ele>
        <time>2017-04-07T09:13:48Z</time>
      </trkpt>
      <trkpt lat="48.30059" lon="2.58463">
        <ele>79.45</ele>
        <time>2017-04-07T09:13:59Z</time>
      </trkpt>
      <trkpt lat="48.3006" lon="2.58465">
        <ele>79.45</ele>
        <time>2017-04-07T09:14:02Z</time>
      </trkpt>
      <trkpt lat="48.30073" lon="2.5848">
        <ele>79.93</ele>
        <time>2017-04-07T09:14:13Z</time>
      </trkpt>
      <trkpt lat="48.30084" lon="2.5849">
        <ele>78.97</ele>
        <time>2017-04-07T09:14:24Z</time>
      </trkpt>
      <trkpt lat="48.30085" lon="2.58492">
        <ele>79.45</ele>
        <time>2017-04-07T09:14:25Z</time>
      </trkpt>
      <trkpt lat="48.30086" lon="2.58494">
        <ele>79.45</ele>
        <time>2017-04-07T09:14:26Z</time>
      </trkpt>
      <trkpt lat="48.3009" lon="2.58501">
        <ele>79.45</ele>
        <time>2017-04-07T09:14:34Z</time>
      </trkpt>
      <trkpt lat="48.30098" lon="2.58515">
        <ele>79.45</ele>
        <time>2017-04-07T09:14:46Z</time>
      </trkpt>
      <trkpt lat="48.30106" lon="2.58524">
        <ele>78.48</ele>
        <time>2017-04-07T09:14:53Z</time>
      </trkpt>
      <trkpt lat="48.30113" lon="2.58533">
        <ele>78.48</ele>
        <time>2017-04-07T09:15:01Z</time>
      </trkpt>
      <trkpt lat="48.30114" lon="2.58534">
        <ele>78.97</ele>
        <time>2017-04-07T09:15:02Z</time>
      </trkpt>
      <trkpt lat="48.30115" lon="2.58537">
        <ele>78.48</ele>
        <time>2017-04-07T09:15:05Z</time>
      </trkpt>
      <trkpt lat="48.30122" lon="2.58543">
        <ele>78.97</ele>
        <time>2017-04-07T09:15:13Z</time>
      </trkpt>
      <trkpt lat="48.3013" lon="2.5854">
        <ele>78.97</ele>
        <time>2017-04-07T09:15:20Z</time>
      </trkpt>
      <trkpt lat="48.30132" lon="2.58541">
        <ele>78.97</ele>
        <time>2017-04-07T09:15:21Z</time>
      </trkpt>
      <trkpt lat="48.30142" lon="2.58554">
        <ele>78.48</ele>
        <time>2017-04-07T09:15:32Z</time>
      </trkpt>
      <trkpt lat="48.30143" lon="2.58557">
        <ele>78.97</ele>
        <time>2017-04-07T09:15:33Z</time>
      </trkpt>
      <trkpt lat="48.30153" lon="2.58577">
        <ele>78.48</ele>
        <time>2017-04-07T09:15:45Z</time>
      </trkpt>
      <trkpt lat="48.30156" lon="2.58583">
        <ele>78</ele>
        <time>2017-04-07T09:15:49Z</time>
      </trkpt>
      <trkpt lat="48.30157" lon="2.58584">
        <ele>78.48</ele>
        <time>2017-04-07T09:15:50Z</time>
      </trkpt>
      <trkpt lat="48.30158" lon="2.58585">
        <ele>78.48</ele>
        <time>2017-04-07T09:15:51Z</time>
      </trkpt>
      <trkpt lat="48.3016" lon="2.58586">
        <ele>78.48</ele>
        <time>2017-04-07T09:15:52Z</time>
      </trkpt>
      <trkpt lat="48.30164" lon="2.58586">
        <ele>79.45</ele>
        <time>2017-04-07T09:15:58Z</time>
      </trkpt>
      <trkpt lat="48.3017" lon="2.58583">
        <ele>79.93</ele>
        <time>2017-04-07T09:16:04Z</time>
      </trkpt>
      <trkpt lat="48.30172" lon="2.58583">
        <ele>79.45</ele>
        <time>2017-04-07T09:16:05Z</time>
      </trkpt>
      <trkpt lat="48.30177" lon="2.58582">
        <ele>81.37</ele>
        <time>2017-04-07T09:16:14Z</time>
      </trkpt>
      <trkpt lat="48.30183" lon="2.58583">
        <ele>81.85</ele>
        <time>2017-04-07T09:16:19Z</time>
      </trkpt>
      <trkpt lat="48.30191" lon="2.58592">
        <ele>82.33</ele>
        <time>2017-04-07T09:16:28Z</time>
      </trkpt>
      <trkpt lat="48.30196" lon="2.58599">
        <ele>82.81</ele>
        <time>2017-04-07T09:16:35Z</time>
      </trkpt>
      <trkpt lat="48.30197" lon="2.586">
        <ele>82.33</ele>
        <time>2017-04-07T09:16:36Z</time>
      </trkpt>
      <trkpt lat="48.30199" lon="2.58601">
        <ele>82.33</ele>
        <time>2017-04-07T09:16:37Z</time>
      </trkpt>
      <trkpt lat="48.30201" lon="2.58603">
        <ele>82.33</ele>
        <time>2017-04-07T09:16:39Z</time>
      </trkpt>
      <trkpt lat="48.30212" lon="2.58617">
        <ele>82.81</ele>
        <time>2017-04-07T09:16:50Z</time>
      </trkpt>
      <trkpt lat="48.30213" lon="2.58618">
        <ele>82.81</ele>
        <time>2017-04-07T09:16:51Z</time>
      </trkpt>
      <trkpt lat="48.30222" lon="2.58626">
        <ele>82.81</ele>
        <time>2017-04-07T09:17:01Z</time>
      </trkpt>
      <trkpt lat="48.30223" lon="2.58628">
        <ele>82.33</ele>
        <time>2017-04-07T09:17:02Z</time>
      </trkpt>
      <trkpt lat="48.30234" lon="2.58639">
        <ele>82.33</ele>
        <time>2017-04-07T09:17:15Z</time>
      </trkpt>
      <trkpt lat="48.30245" lon="2.58664">
        <ele>81.85</ele>
        <time>2017-04-07T09:17:26Z</time>
      </trkpt>
      <trkpt lat="48.3025" lon="2.58681">
        <ele>82.33</ele>
        <time>2017-04-07T09:17:36Z</time>
      </trkpt>
      <trkpt lat="48.30252" lon="2.58684">
        <ele>81.37</ele>
        <time>2017-04-07T09:17:37Z</time>
      </trkpt>
      <trkpt lat="48.30259" lon="2.58698">
        <ele>82.81</ele>
        <time>2017-04-07T09:17:47Z</time>
      </trkpt>
      <trkpt lat="48.30263" lon="2.58708">
        <ele>82.81</ele>
        <time>2017-04-07T09:17:54Z</time>
      </trkpt>
      <trkpt lat="48.30263" lon="2.5871">
        <ele>83.29</ele>
        <time>2017-04-07T09:17:55Z</time>
      </trkpt>
      <trkpt lat="48.30264" lon="2.58713">
        <ele>82.81</ele>
        <time>2017-04-07T09:17:56Z</time>
      </trkpt>
      <trkpt lat="48.30264" lon="2.58715">
        <ele>82.33</ele>
        <time>2017-04-07T09:17:57Z</time>
      </trkpt>
      <trkpt lat="48.30263" lon="2.58732">
        <ele>82.33</ele>
        <time>2017-04-07T09:18:06Z</time>
      </trkpt>
      <trkpt lat="48.30262" lon="2.58733">
        <ele>82.81</ele>
        <time>2017-04-07T09:18:07Z</time>
      </trkpt>
      <trkpt lat="48.30263" lon="2.58739">
        <ele>82.33</ele>
        <time>2017-04-07T09:18:12Z</time>
      </trkpt>
      <trkpt lat="48.30264" lon="2.58741">
        <ele>82.33</ele>
        <time>2017-04-07T09:18:13Z</time>
      </trkpt>
      <trkpt lat="48.30268" lon="2.58753">
        <ele>83.29</ele>
        <time>2017-04-07T09:18:22Z</time>
      </trkpt>
      <trkpt lat="48.30278" lon="2.58773">
        <ele>84.25</ele>
        <time>2017-04-07T09:18:32Z</time>
      </trkpt>
      <trkpt lat="48.30279" lon="2.58776">
        <ele>83.77</ele>
        <time>2017-04-07T09:18:33Z</time>
      </trkpt>
      <trkpt lat="48.3028" lon="2.58781">
        <ele>84.25</ele>
        <time>2017-04-07T09:18:36Z</time>
      </trkpt>
      <trkpt lat="48.30281" lon="2.58785">
        <ele>83.77</ele>
        <time>2017-04-07T09:18:38Z</time>
      </trkpt>
      <trkpt lat="48.30285" lon="2.58795">
        <ele>84.25</ele>
        <time>2017-04-07T09:18:45Z</time>
      </trkpt>
      <trkpt lat="48.30286" lon="2.58797">
        <ele>84.25</ele>
        <time>2017-04-07T09:18:46Z</time>
      </trkpt>
      <trkpt lat="48.30287" lon="2.58799">
        <ele>84.73</ele>
        <time>2017-04-07T09:18:47Z</time>
      </trkpt>
      <trkpt lat="48.30288" lon="2.58801">
        <ele>84.73</ele>
        <time>2017-04-07T09:18:48Z</time>
      </trkpt>
      <trkpt lat="48.3029" lon="2.58805">
        <ele>85.21</ele>
        <time>2017-04-07T09:18:52Z</time>
      </trkpt>
      <trkpt lat="48.30291" lon="2.58807">
        <ele>85.21</ele>
        <time>2017-04-07T09:18:53Z</time>
      </trkpt>
      <trkpt lat="48.30292" lon="2.58808">
        <ele>85.21</ele>
        <time>2017-04-07T09:18:54Z</time>
      </trkpt>
      <trkpt lat="48.30293" lon="2.5881">
        <ele>84.73</ele>
        <time>2017-04-07T09:18:55Z</time>
      </trkpt>
      <trkpt lat="48.30299" lon="2.5883">
        <ele>84.73</ele>
        <time>2017-04-07T09:19:06Z</time>
      </trkpt>
      <trkpt lat="48.303" lon="2.58832">
        <ele>85.21</ele>
        <time>2017-04-07T09:19:07Z</time>
      </trkpt>
      <trkpt lat="48.30306" lon="2.58844">
        <ele>85.69</ele>
        <time>2017-04-07T09:19:18Z</time>
      </trkpt>
      <trkpt lat="48.30309" lon="2.58853">
        <ele>85.21</ele>
        <time>2017-04-07T09:19:24Z</time>
      </trkpt>
      <trkpt lat="48.3031" lon="2.58856">
        <ele>85.21</ele>
        <time>2017-04-07T09:19:25Z</time>
      </trkpt>
      <trkpt lat="48.30311" lon="2.58858">
        <ele>85.69</ele>
        <time>2017-04-07T09:19:26Z</time>
      </trkpt>
      <trkpt lat="48.30312" lon="2.5886">
        <ele>85.69</ele>
        <time>2017-04-07T09:19:27Z</time>
      </trkpt>
      <trkpt lat="48.30319" lon="2.58881">
        <ele>86.66</ele>
        <time>2017-04-07T09:19:40Z</time>
      </trkpt>
      <trkpt lat="48.30327" lon="2.58899">
        <ele>87.14</ele>
        <time>2017-04-07T09:19:51Z</time>
      </trkpt>
      <trkpt lat="48.3033" lon="2.58909">
        <ele>87.14</ele>
        <time>2017-04-07T09:19:59Z</time>
      </trkpt>
      <trkpt lat="48.3033" lon="2.5891">
        <ele>87.14</ele>
        <time>2017-04-07T09:20:00Z</time>
      </trkpt>
      <trkpt lat="48.3033" lon="2.58912">
        <ele>87.62</ele>
        <time>2017-04-07T09:20:04Z</time>
      </trkpt>
      <trkpt lat="48.30337" lon="2.58909">
        <ele>88.1</ele>
        <time>2017-04-07T09:20:17Z</time>
      </trkpt>
      <trkpt lat="48.30341" lon="2.58917">
        <ele>87.14</ele>
        <time>2017-04-07T09:20:32Z</time>
      </trkpt>
      <trkpt lat="48.30341" lon="2.5892">
        <ele>87.62</ele>
        <time>2017-04-07T09:20:33Z</time>
      </trkpt>
      <trkpt lat="48.30346" lon="2.58934">
        <ele>88.1</ele>
        <time>2017-04-07T09:20:43Z</time>
      </trkpt>
      <trkpt lat="48.30353" lon="2.5895">
        <ele>89.54</ele>
        <time>2017-04-07T09:20:56Z</time>
      </trkpt>
      <trkpt lat="48.30359" lon="2.58963">
        <ele>91.46</ele>
        <time>2017-04-07T09:21:05Z</time>
      </trkpt>
      <trkpt lat="48.30363" lon="2.58976">
        <ele>92.9</ele>
        <time>2017-04-07T09:21:16Z</time>
      </trkpt>
      <trkpt lat="48.30358" lon="2.58984">
        <ele>93.87</ele>
        <time>2017-04-07T09:21:24Z</time>
      </trkpt>
      <trkpt lat="48.30357" lon="2.58986">
        <ele>94.35</ele>
        <time>2017-04-07T09:21:27Z</time>
      </trkpt>
      <trkpt lat="48.30355" lon="2.5899">
        <ele>94.83</ele>
        <time>2017-04-07T09:21:31Z</time>
      </trkpt>
      <trkpt lat="48.30349" lon="2.58993">
        <ele>94.83</ele>
        <time>2017-04-07T09:21:38Z</time>
      </trkpt>
      <trkpt lat="48.30346" lon="2.58997">
        <ele>94.83</ele>
        <time>2017-04-07T09:21:43Z</time>
      </trkpt>
      <trkpt lat="48.30343" lon="2.59004">
        <ele>94.83</ele>
        <time>2017-04-07T09:21:49Z</time>
      </trkpt>
      <trkpt lat="48.30339" lon="2.5902">
        <ele>95.79</ele>
        <time>2017-04-07T09:22:01Z</time>
      </trkpt>
      <trkpt lat="48.30337" lon="2.59032">
        <ele>95.79</ele>
        <time>2017-04-07T09:22:10Z</time>
      </trkpt>
      <trkpt lat="48.3033" lon="2.59052">
        <ele>95.79</ele>
        <time>2017-04-07T09:22:23Z</time>
      </trkpt>
      <trkpt lat="48.30329" lon="2.59053">
        <ele>95.79</ele>
        <time>2017-04-07T09:22:24Z</time>
      </trkpt>
      <trkpt lat="48.30328" lon="2.59068">
        <ele>95.79</ele>
        <time>2017-04-07T09:22:37Z</time>
      </trkpt>
      <trkpt lat="48.30331" lon="2.59067">
        <ele>96.27</ele>
        <time>2017-04-07T09:22:55Z</time>
      </trkpt>
      <trkpt lat="48.30337" lon="2.5907">
        <ele>96.75</ele>
        <time>2017-04-07T09:23:28Z</time>
      </trkpt>
      <trkpt lat="48.30336" lon="2.59072">
        <ele>96.27</ele>
        <time>2017-04-07T09:23:58Z</time>
      </trkpt>
      <trkpt lat="48.30335" lon="2.59074">
        <ele>96.27</ele>
        <time>2017-04-07T09:23:59Z</time>
      </trkpt>
      <trkpt lat="48.30335" lon="2.59089">
        <ele>96.27</ele>
        <time>2017-04-07T09:24:10Z</time>
      </trkpt>
      <trkpt lat="48.30338" lon="2.591">
        <ele>96.27</ele>
        <time>2017-04-07T09:24:19Z</time>
      </trkpt>
      <trkpt lat="48.30346" lon="2.59113">
        <ele>96.75</ele>
        <time>2017-04-07T09:24:32Z</time>
      </trkpt>
      <trkpt lat="48.30353" lon="2.59122">
        <ele>97.23</ele>
        <time>2017-04-07T09:24:40Z</time>
      </trkpt>
      <trkpt lat="48.30362" lon="2.5914">
        <ele>97.23</ele>
        <time>2017-04-07T09:24:53Z</time>
      </trkpt>
      <trkpt lat="48.30368" lon="2.59156">
        <ele>97.23</ele>
        <time>2017-04-07T09:25:04Z</time>
      </trkpt>
      <trkpt lat="48.30369" lon="2.59162">
        <ele>96.75</ele>
        <time>2017-04-07T09:25:06Z</time>
      </trkpt>
      <trkpt lat="48.30368" lon="2.59166">
        <ele>97.23</ele>
        <time>2017-04-07T09:25:07Z</time>
      </trkpt>
      <trkpt lat="48.30368" lon="2.59179">
        <ele>97.23</ele>
        <time>2017-04-07T09:25:17Z</time>
      </trkpt>
      <trkpt lat="48.30368" lon="2.59186">
        <ele>97.23</ele>
        <time>2017-04-07T09:25:22Z</time>
      </trkpt>
      <trkpt lat="48.3037" lon="2.59195">
        <ele>97.23</ele>
        <time>2017-04-07T09:25:33Z</time>
      </trkpt>
      <trkpt lat="48.30369" lon="2.59203">
        <ele>97.23</ele>
        <time>2017-04-07T09:25:50Z</time>
      </trkpt>
      <trkpt lat="48.30365" lon="2.59213">
        <ele>95.79</ele>
        <time>2017-04-07T09:26:05Z</time>
      </trkpt>
      <trkpt lat="48.30361" lon="2.59235">
        <ele>96.75</ele>
        <time>2017-04-07T09:26:19Z</time>
      </trkpt>
      <trkpt lat="48.30357" lon="2.59248">
        <ele>96.27</ele>
        <time>2017-04-07T09:26:28Z</time>
      </trkpt>
      <trkpt lat="48.30356" lon="2.59248">
        <ele>96.27</ele>
        <time>2017-04-07T09:26:29Z</time>
      </trkpt>
      <trkpt lat="48.30354" lon="2.59252">
        <ele>95.79</ele>
        <time>2017-04-07T09:26:34Z</time>
      </trkpt>
      <trkpt lat="48.30355" lon="2.59254">
        <ele>95.79</ele>
        <time>2017-04-07T09:26:35Z</time>
      </trkpt>
      <trkpt lat="48.30355" lon="2.59255">
        <ele>96.27</ele>
        <time>2017-04-07T09:26:36Z</time>
      </trkpt>
      <trkpt lat="48.30352" lon="2.59269">
        <ele>97.71</ele>
        <time>2017-04-07T09:26:45Z</time>
      </trkpt>
      <trkpt lat="48.3035" lon="2.59279">
        <ele>97.71</ele>
        <time>2017-04-07T09:26:52Z</time>
      </trkpt>
      <trkpt lat="48.30349" lon="2.59289">
        <ele>96.75</ele>
        <time>2017-04-07T09:26:58Z</time>
      </trkpt>
      <trkpt lat="48.30349" lon="2.59292">
        <ele>96.75</ele>
        <time>2017-04-07T09:26:59Z</time>
      </trkpt>
      <trkpt lat="48.30349" lon="2.59308">
        <ele>97.23</ele>
        <time>2017-04-07T09:27:09Z</time>
      </trkpt>
      <trkpt lat="48.30345" lon="2.59321">
        <ele>97.23</ele>
        <time>2017-04-07T09:27:20Z</time>
      </trkpt>
      <trkpt lat="48.30345" lon="2.59324">
        <ele>97.71</ele>
        <time>2017-04-07T09:27:22Z</time>
      </trkpt>
      <trkpt lat="48.30344" lon="2.59332">
        <ele>96.75</ele>
        <time>2017-04-07T09:27:27Z</time>
      </trkpt>
      <trkpt lat="48.30345" lon="2.59346">
        <ele>97.23</ele>
        <time>2017-04-07T09:27:36Z</time>
      </trkpt>
      <trkpt lat="48.30339" lon="2.59361">
        <ele>98.19</ele>
        <time>2017-04-07T09:27:45Z</time>
      </trkpt>
      <trkpt lat="48.30338" lon="2.59363">
        <ele>98.19</ele>
        <time>2017-04-07T09:27:46Z</time>
      </trkpt>
      <trkpt lat="48.30336" lon="2.59381">
        <ele>98.67</ele>
        <time>2017-04-07T09:27:55Z</time>
      </trkpt>
      <trkpt lat="48.30339" lon="2.59394">
        <ele>98.19</ele>
        <time>2017-04-07T09:28:02Z</time>
      </trkpt>
      <trkpt lat="48.30337" lon="2.59409">
        <ele>97.71</ele>
        <time>2017-04-07T09:28:13Z</time>
      </trkpt>
      <trkpt lat="48.30335" lon="2.59425">
        <ele>97.71</ele>
        <time>2017-04-07T09:28:24Z</time>
      </trkpt>
      <trkpt lat="48.30333" lon="2.59437">
        <ele>97.71</ele>
        <time>2017-04-07T09:28:37Z</time>
      </trkpt>
      <trkpt lat="48.30335" lon="2.59449">
        <ele>98.19</ele>
        <time>2017-04-07T09:28:48Z</time>
      </trkpt>
      <trkpt lat="48.30335" lon="2.59457">
        <ele>98.19</ele>
        <time>2017-04-07T09:28:54Z</time>
      </trkpt>
      <trkpt lat="48.30334" lon="2.59465">
        <ele>98.19</ele>
        <time>2017-04-07T09:29:00Z</time>
      </trkpt>
      <trkpt lat="48.30328" lon="2.59471">
        <ele>97.71</ele>
        <time>2017-04-07T09:29:08Z</time>
      </trkpt>
      <trkpt lat="48.30326" lon="2.59476">
        <ele>97.23</ele>
        <time>2017-04-07T09:29:12Z</time>
      </trkpt>
      <trkpt lat="48.30321" lon="2.59483">
        <ele>97.71</ele>
        <time>2017-04-07T09:29:20Z</time>
      </trkpt>
      <trkpt lat="48.30311" lon="2.59518">
        <ele>97.71</ele>
        <time>2017-04-07T09:29:33Z</time>
      </trkpt>
      <trkpt lat="48.30305" lon="2.59537">
        <ele>97.23</ele>
        <time>2017-04-07T09:29:44Z</time>
      </trkpt>
      <trkpt lat="48.30307" lon="2.59542">
        <ele>97.23</ele>
        <time>2017-04-07T09:29:46Z</time>
      </trkpt>
      <trkpt lat="48.30305" lon="2.59558">
        <ele>97.71</ele>
        <time>2017-04-07T09:29:56Z</time>
      </trkpt>
      <trkpt lat="48.30305" lon="2.59562">
        <ele>97.71</ele>
        <time>2017-04-07T09:29:59Z</time>
      </trkpt>
      <trkpt lat="48.30306" lon="2.59569">
        <ele>98.19</ele>
        <time>2017-04-07T09:30:03Z</time>
      </trkpt>
      <trkpt lat="48.30305" lon="2.59584">
        <ele>98.67</ele>
        <time>2017-04-07T09:30:09Z</time>
      </trkpt>
      <trkpt lat="48.30312" lon="2.59607">
        <ele>98.67</ele>
        <time>2017-04-07T09:30:20Z</time>
      </trkpt>
      <trkpt lat="48.30315" lon="2.59625">
        <ele>97.71</ele>
        <time>2017-04-07T09:30:30Z</time>
      </trkpt>
      <trkpt lat="48.30315" lon="2.59629">
        <ele>97.23</ele>
        <time>2017-04-07T09:30:34Z</time>
      </trkpt>
      <trkpt lat="48.30315" lon="2.59631">
        <ele>97.23</ele>
        <time>2017-04-07T09:30:35Z</time>
      </trkpt>
      <trkpt lat="48.30315" lon="2.59634">
        <ele>97.23</ele>
        <time>2017-04-07T09:30:36Z</time>
      </trkpt>
      <trkpt lat="48.30315" lon="2.59635">
        <ele>97.23</ele>
        <time>2017-04-07T09:30:37Z</time>
      </trkpt>
      <trkpt lat="48.30316" lon="2.59637">
        <ele>97.23</ele>
        <time>2017-04-07T09:30:38Z</time>
      </trkpt>
      <trkpt lat="48.30317" lon="2.59655">
        <ele>97.23</ele>
        <time>2017-04-07T09:30:49Z</time>
      </trkpt>
      <trkpt lat="48.30319" lon="2.59667">
        <ele>96.27</ele>
        <time>2017-04-07T09:30:57Z</time>
      </trkpt>
      <trkpt lat="48.3032" lon="2.59669">
        <ele>95.79</ele>
        <time>2017-04-07T09:30:58Z</time>
      </trkpt>
      <trkpt lat="48.3032" lon="2.59671">
        <ele>96.27</ele>
        <time>2017-04-07T09:30:59Z</time>
      </trkpt>
      <trkpt lat="48.30323" lon="2.5969">
        <ele>93.87</ele>
        <time>2017-04-07T09:31:10Z</time>
      </trkpt>
      <trkpt lat="48.30328" lon="2.59711">
        <ele>91.94</ele>
        <time>2017-04-07T09:31:22Z</time>
      </trkpt>
      <trkpt lat="48.30329" lon="2.59733">
        <ele>90.02</ele>
        <time>2017-04-07T09:31:33Z</time>
      </trkpt>
      <trkpt lat="48.30328" lon="2.59745">
        <ele>89.54</ele>
        <time>2017-04-07T09:31:39Z</time>
      </trkpt>
      <trkpt lat="48.30328" lon="2.59749">
        <ele>89.06</ele>
        <time>2017-04-07T09:31:41Z</time>
      </trkpt>
      <trkpt lat="48.30328" lon="2.59752">
        <ele>89.54</ele>
        <time>2017-04-07T09:31:42Z</time>
      </trkpt>
      <trkpt lat="48.30328" lon="2.59754">
        <ele>88.58</ele>
        <time>2017-04-07T09:31:43Z</time>
      </trkpt>
      <trkpt lat="48.30328" lon="2.59756">
        <ele>88.58</ele>
        <time>2017-04-07T09:31:44Z</time>
      </trkpt>
      <trkpt lat="48.30328" lon="2.59759">
        <ele>89.06</ele>
        <time>2017-04-07T09:31:45Z</time>
      </trkpt>
      <trkpt lat="48.30326" lon="2.59764">
        <ele>88.58</ele>
        <time>2017-04-07T09:31:48Z</time>
      </trkpt>
      <trkpt lat="48.30317" lon="2.59765">
        <ele>87.14</ele>
        <time>2017-04-07T09:31:59Z</time>
      </trkpt>
      <trkpt lat="48.30305" lon="2.59768">
        <ele>87.62</ele>
        <time>2017-04-07T09:32:08Z</time>
      </trkpt>
      <trkpt lat="48.3029" lon="2.59771">
        <ele>87.14</ele>
        <time>2017-04-07T09:32:21Z</time>
      </trkpt>
      <trkpt lat="48.30275" lon="2.59775">
        <ele>85.69</ele>
        <time>2017-04-07T09:32:34Z</time>
      </trkpt>
      <trkpt lat="48.30255" lon="2.59774">
        <ele>84.73</ele>
        <time>2017-04-07T09:32:46Z</time>
      </trkpt>
      <trkpt lat="48.30243" lon="2.59765">
        <ele>84.25</ele>
        <time>2017-04-07T09:32:57Z</time>
      </trkpt>
      <trkpt lat="48.30242" lon="2.59763">
        <ele>84.73</ele>
        <time>2017-04-07T09:32:58Z</time>
      </trkpt>
      <trkpt lat="48.30243" lon="2.5976">
        <ele>84.25</ele>
        <time>2017-04-07T09:32:59Z</time>
      </trkpt>
      <trkpt lat="48.30243" lon="2.59758">
        <ele>84.25</ele>
        <time>2017-04-07T09:33:00Z</time>
      </trkpt>
      <trkpt lat="48.30244" lon="2.59752">
        <ele>83.77</ele>
        <time>2017-04-07T09:33:07Z</time>
      </trkpt>
      <trkpt lat="48.30241" lon="2.59746">
        <ele>83.77</ele>
        <time>2017-04-07T09:33:11Z</time>
      </trkpt>
      <trkpt lat="48.30241" lon="2.59744">
        <ele>83.77</ele>
        <time>2017-04-07T09:33:12Z</time>
      </trkpt>
      <trkpt lat="48.3024" lon="2.59741">
        <ele>82.81</ele>
        <time>2017-04-07T09:33:13Z</time>
      </trkpt>
      <trkpt lat="48.3024" lon="2.59739">
        <ele>82.81</ele>
        <time>2017-04-07T09:33:14Z</time>
      </trkpt>
      <trkpt lat="48.30232" lon="2.59723">
        <ele>80.89</ele>
        <time>2017-04-07T09:33:26Z</time>
      </trkpt>
      <trkpt lat="48.30223" lon="2.59704">
        <ele>78.97</ele>
        <time>2017-04-07T09:33:38Z</time>
      </trkpt>
      <trkpt lat="48.30205" lon="2.59692">
        <ele>78</ele>
        <time>2017-04-07T09:33:51Z</time>
      </trkpt>
      <trkpt lat="48.30195" lon="2.59672">
        <ele>78</ele>
        <time>2017-04-07T09:34:05Z</time>
      </trkpt>
      <trkpt lat="48.30192" lon="2.59662">
        <ele>78</ele>
        <time>2017-04-07T09:34:12Z</time>
      </trkpt>
      <trkpt lat="48.30186" lon="2.59652">
        <ele>79.45</ele>
        <time>2017-04-07T09:34:20Z</time>
      </trkpt>
      <trkpt lat="48.30186" lon="2.5965">
        <ele>78.97</ele>
        <time>2017-04-07T09:34:21Z</time>
      </trkpt>
      <trkpt lat="48.30181" lon="2.5964">
        <ele>79.93</ele>
        <time>2017-04-07T09:34:27Z</time>
      </trkpt>
      <trkpt lat="48.30173" lon="2.59624">
        <ele>81.37</ele>
        <time>2017-04-07T09:34:39Z</time>
      </trkpt>
      <trkpt lat="48.3017" lon="2.59622">
        <ele>81.37</ele>
        <time>2017-04-07T09:34:41Z</time>
      </trkpt>
      <trkpt lat="48.30161" lon="2.59609">
        <ele>80.89</ele>
        <time>2017-04-07T09:34:53Z</time>
      </trkpt>
      <trkpt lat="48.3016" lon="2.59608">
        <ele>80.89</ele>
        <time>2017-04-07T09:34:55Z</time>
      </trkpt>
      <trkpt lat="48.3015" lon="2.59608">
        <ele>81.37</ele>
        <time>2017-04-07T09:35:07Z</time>
      </trkpt>
      <trkpt lat="48.30135" lon="2.59617">
        <ele>80.89</ele>
        <time>2017-04-07T09:35:19Z</time>
      </trkpt>
      <trkpt lat="48.30124" lon="2.59617">
        <ele>80.41</ele>
        <time>2017-04-07T09:35:24Z</time>
      </trkpt>
      <trkpt lat="48.30122" lon="2.59617">
        <ele>80.41</ele>
        <time>2017-04-07T09:35:26Z</time>
      </trkpt>
      <trkpt lat="48.30115" lon="2.59617">
        <ele>79.93</ele>
        <time>2017-04-07T09:35:31Z</time>
      </trkpt>
      <trkpt lat="48.30113" lon="2.59618">
        <ele>79.45</ele>
        <time>2017-04-07T09:35:32Z</time>
      </trkpt>
      <trkpt lat="48.30112" lon="2.59618">
        <ele>79.45</ele>
        <time>2017-04-07T09:35:33Z</time>
      </trkpt>
      <trkpt lat="48.3011" lon="2.59619">
        <ele>79.45</ele>
        <time>2017-04-07T09:35:34Z</time>
      </trkpt>
      <trkpt lat="48.30108" lon="2.59621">
        <ele>79.45</ele>
        <time>2017-04-07T09:35:35Z</time>
      </trkpt>
      <trkpt lat="48.30098" lon="2.59626">
        <ele>80.89</ele>
        <time>2017-04-07T09:35:46Z</time>
      </trkpt>
      <trkpt lat="48.30098" lon="2.59629">
        <ele>81.37</ele>
        <time>2017-04-07T09:35:48Z</time>
      </trkpt>
      <trkpt lat="48.30092" lon="2.59632">
        <ele>80.89</ele>
        <time>2017-04-07T09:35:57Z</time>
      </trkpt>
      <trkpt lat="48.3009" lon="2.59631">
        <ele>81.37</ele>
        <time>2017-04-07T09:35:58Z</time>
      </trkpt>
      <trkpt lat="48.30086" lon="2.59629">
        <ele>80.89</ele>
        <time>2017-04-07T09:36:03Z</time>
      </trkpt>
      <trkpt lat="48.30085" lon="2.59628">
        <ele>80.41</ele>
        <time>2017-04-07T09:36:04Z</time>
      </trkpt>
      <trkpt lat="48.30083" lon="2.59626">
        <ele>80.41</ele>
        <time>2017-04-07T09:36:05Z</time>
      </trkpt>
      <trkpt lat="48.3008" lon="2.59626">
        <ele>80.41</ele>
        <time>2017-04-07T09:36:06Z</time>
      </trkpt>
      <trkpt lat="48.30078" lon="2.59625">
        <ele>80.41</ele>
        <time>2017-04-07T09:36:07Z</time>
      </trkpt>
      <trkpt lat="48.30069" lon="2.59622">
        <ele>80.89</ele>
        <time>2017-04-07T09:36:16Z</time>
      </trkpt>
      <trkpt lat="48.30067" lon="2.59621">
        <ele>80.41</ele>
        <time>2017-04-07T09:36:17Z</time>
      </trkpt>
      <trkpt lat="48.30059" lon="2.59616">
        <ele>80.41</ele>
        <time>2017-04-07T09:36:22Z</time>
      </trkpt>
      <trkpt lat="48.30058" lon="2.59616">
        <ele>80.41</ele>
        <time>2017-04-07T09:36:23Z</time>
      </trkpt>
      <trkpt lat="48.30045" lon="2.59618">
        <ele>79.93</ele>
        <time>2017-04-07T09:36:35Z</time>
      </trkpt>
      <trkpt lat="48.30041" lon="2.59614">
        <ele>79.45</ele>
        <time>2017-04-07T09:36:42Z</time>
      </trkpt>
      <trkpt lat="48.30025" lon="2.59613">
        <ele>78.97</ele>
        <time>2017-04-07T09:36:54Z</time>
      </trkpt>
      <trkpt lat="48.30009" lon="2.59604">
        <ele>78.48</ele>
        <time>2017-04-07T09:37:06Z</time>
      </trkpt>
      <trkpt lat="48.29998" lon="2.59599">
        <ele>78.97</ele>
        <time>2017-04-07T09:37:16Z</time>
      </trkpt>
      <trkpt lat="48.2999" lon="2.59589">
        <ele>78.97</ele>
        <time>2017-04-07T09:37:25Z</time>
      </trkpt>
      <trkpt lat="48.29991" lon="2.59571">
        <ele>78.97</ele>
        <time>2017-04-07T09:37:36Z</time>
      </trkpt>
      <trkpt lat="48.29991" lon="2.59569">
        <ele>78.48</ele>
        <time>2017-04-07T09:37:37Z</time>
      </trkpt>
      <trkpt lat="48.29985" lon="2.59557">
        <ele>77.52</ele>
        <time>2017-04-07T09:37:46Z</time>
      </trkpt>
      <trkpt lat="48.29983" lon="2.59554">
        <ele>77.52</ele>
        <time>2017-04-07T09:37:48Z</time>
      </trkpt>
      <trkpt lat="48.29973" lon="2.59543">
        <ele>76.56</ele>
        <time>2017-04-07T09:38:00Z</time>
      </trkpt>
      <trkpt lat="48.29956" lon="2.59532">
        <ele>76.08</ele>
        <time>2017-04-07T09:38:11Z</time>
      </trkpt>
      <trkpt lat="48.29955" lon="2.59532">
        <ele>76.08</ele>
        <time>2017-04-07T09:38:16Z</time>
      </trkpt>
      <trkpt lat="48.29954" lon="2.59533">
        <ele>76.56</ele>
        <time>2017-04-07T09:38:17Z</time>
      </trkpt>
      <trkpt lat="48.29952" lon="2.59533">
        <ele>77.52</ele>
        <time>2017-04-07T09:38:23Z</time>
      </trkpt>
      <trkpt lat="48.29951" lon="2.59535">
        <ele>77.52</ele>
        <time>2017-04-07T09:38:24Z</time>
      </trkpt>
      <trkpt lat="48.2995" lon="2.59536">
        <ele>77.52</ele>
        <time>2017-04-07T09:38:25Z</time>
      </trkpt>
      <trkpt lat="48.29943" lon="2.59542">
        <ele>78</ele>
        <time>2017-04-07T09:38:33Z</time>
      </trkpt>
      <trkpt lat="48.29943" lon="2.59543">
        <ele>78</ele>
        <time>2017-04-07T09:38:34Z</time>
      </trkpt>
      <trkpt lat="48.29939" lon="2.59557">
        <ele>77.52</ele>
        <time>2017-04-07T09:38:45Z</time>
      </trkpt>
      <trkpt lat="48.29937" lon="2.59559">
        <ele>77.52</ele>
        <time>2017-04-07T09:38:46Z</time>
      </trkpt>
      <trkpt lat="48.29928" lon="2.59569">
        <ele>77.52</ele>
        <time>2017-04-07T09:38:55Z</time>
      </trkpt>
      <trkpt lat="48.29924" lon="2.59571">
        <ele>77.52</ele>
        <time>2017-04-07T09:38:58Z</time>
      </trkpt>
      <trkpt lat="48.29923" lon="2.59572">
        <ele>77.04</ele>
        <time>2017-04-07T09:38:59Z</time>
      </trkpt>
      <trkpt lat="48.29921" lon="2.59573">
        <ele>77.04</ele>
        <time>2017-04-07T09:39:00Z</time>
      </trkpt>
      <trkpt lat="48.2992" lon="2.59574">
        <ele>77.04</ele>
        <time>2017-04-07T09:39:01Z</time>
      </trkpt>
      <trkpt lat="48.29919" lon="2.59575">
        <ele>77.04</ele>
        <time>2017-04-07T09:39:02Z</time>
      </trkpt>
      <trkpt lat="48.29908" lon="2.59583">
        <ele>75.6</ele>
        <time>2017-04-07T09:39:14Z</time>
      </trkpt>
      <trkpt lat="48.29907" lon="2.59584">
        <ele>75.6</ele>
        <time>2017-04-07T09:39:15Z</time>
      </trkpt>
      <trkpt lat="48.29894" lon="2.59598">
        <ele>75.12</ele>
        <time>2017-04-07T09:39:28Z</time>
      </trkpt>
      <trkpt lat="48.29885" lon="2.59604">
        <ele>74.16</ele>
        <time>2017-04-07T09:39:37Z</time>
      </trkpt>
      <trkpt lat="48.29884" lon="2.59605">
        <ele>74.64</ele>
        <time>2017-04-07T09:39:38Z</time>
      </trkpt>
      <trkpt lat="48.29876" lon="2.59612">
        <ele>73.68</ele>
        <time>2017-04-07T09:39:48Z</time>
      </trkpt>
      <trkpt lat="48.29875" lon="2.59614">
        <ele>73.68</ele>
        <time>2017-04-07T09:39:49Z</time>
      </trkpt>
      <trkpt lat="48.29874" lon="2.59615">
        <ele>73.68</ele>
        <time>2017-04-07T09:39:50Z</time>
      </trkpt>
      <trkpt lat="48.29857" lon="2.59624">
        <ele>73.2</ele>
        <time>2017-04-07T09:39:59Z</time>
      </trkpt>
      <trkpt lat="48.29856" lon="2.59627">
        <ele>72.72</ele>
        <time>2017-04-07T09:40:00Z</time>
      </trkpt>
      <trkpt lat="48.29855" lon="2.59629">
        <ele>73.68</ele>
        <time>2017-04-07T09:40:01Z</time>
      </trkpt>
      <trkpt lat="48.29844" lon="2.5964">
        <ele>72.72</ele>
        <time>2017-04-07T09:40:13Z</time>
      </trkpt>
      <trkpt lat="48.29842" lon="2.59641">
        <ele>73.2</ele>
        <time>2017-04-07T09:40:15Z</time>
      </trkpt>
      <trkpt lat="48.29839" lon="2.59642">
        <ele>72.72</ele>
        <time>2017-04-07T09:40:20Z</time>
      </trkpt>
      <trkpt lat="48.29838" lon="2.59644">
        <ele>73.2</ele>
        <time>2017-04-07T09:40:21Z</time>
      </trkpt>
      <trkpt lat="48.29837" lon="2.59645">
        <ele>73.2</ele>
        <time>2017-04-07T09:40:22Z</time>
      </trkpt>
      <trkpt lat="48.29836" lon="2.59655">
        <ele>72.72</ele>
        <time>2017-04-07T09:40:28Z</time>
      </trkpt>
      <trkpt lat="48.29834" lon="2.59656">
        <ele>72.72</ele>
        <time>2017-04-07T09:40:29Z</time>
      </trkpt>
      <trkpt lat="48.29833" lon="2.59656">
        <ele>73.68</ele>
        <time>2017-04-07T09:40:30Z</time>
      </trkpt>
      <trkpt lat="48.29832" lon="2.59656">
        <ele>73.2</ele>
        <time>2017-04-07T09:40:31Z</time>
      </trkpt>
      <trkpt lat="48.29829" lon="2.59656">
        <ele>73.68</ele>
        <time>2017-04-07T09:40:36Z</time>
      </trkpt>
      <trkpt lat="48.29828" lon="2.59655">
        <ele>73.68</ele>
        <time>2017-04-07T09:40:37Z</time>
      </trkpt>
      <trkpt lat="48.29827" lon="2.59654">
        <ele>73.68</ele>
        <time>2017-04-07T09:40:38Z</time>
      </trkpt>
      <trkpt lat="48.29821" lon="2.59651">
        <ele>73.68</ele>
        <time>2017-04-07T09:40:45Z</time>
      </trkpt>
      <trkpt lat="48.29812" lon="2.59654">
        <ele>73.68</ele>
        <time>2017-04-07T09:40:49Z</time>
      </trkpt>
      <trkpt lat="48.29804" lon="2.59654">
        <ele>73.2</ele>
        <time>2017-04-07T09:40:53Z</time>
      </trkpt>
      <trkpt lat="48.298" lon="2.59657">
        <ele>73.68</ele>
        <time>2017-04-07T09:41:00Z</time>
      </trkpt>
      <trkpt lat="48.29796" lon="2.59661">
        <ele>73.2</ele>
        <time>2017-04-07T09:41:02Z</time>
      </trkpt>
      <trkpt lat="48.29792" lon="2.59676">
        <ele>73.2</ele>
        <time>2017-04-07T09:41:11Z</time>
      </trkpt>
      <trkpt lat="48.29789" lon="2.59683">
        <ele>73.2</ele>
        <time>2017-04-07T09:41:17Z</time>
      </trkpt>
      <trkpt lat="48.29782" lon="2.59702">
        <ele>74.16</ele>
        <time>2017-04-07T09:41:26Z</time>
      </trkpt>
      <trkpt lat="48.29776" lon="2.59718">
        <ele>72.72</ele>
        <time>2017-04-07T09:41:38Z</time>
      </trkpt>
      <trkpt lat="48.29771" lon="2.59732">
        <ele>73.2</ele>
        <time>2017-04-07T09:41:48Z</time>
      </trkpt>
      <trkpt lat="48.29769" lon="2.59741">
        <ele>73.2</ele>
        <time>2017-04-07T09:41:53Z</time>
      </trkpt>
      <trkpt lat="48.29765" lon="2.59754">
        <ele>73.68</ele>
        <time>2017-04-07T09:42:00Z</time>
      </trkpt>
      <trkpt lat="48.29761" lon="2.5978">
        <ele>74.64</ele>
        <time>2017-04-07T09:42:12Z</time>
      </trkpt>
      <trkpt lat="48.29761" lon="2.59782">
        <ele>73.68</ele>
        <time>2017-04-07T09:42:13Z</time>
      </trkpt>
      <trkpt lat="48.29763" lon="2.59807">
        <ele>73.68</ele>
        <time>2017-04-07T09:42:27Z</time>
      </trkpt>
      <trkpt lat="48.29759" lon="2.59819">
        <ele>74.16</ele>
        <time>2017-04-07T09:42:40Z</time>
      </trkpt>
      <trkpt lat="48.29762" lon="2.59823">
        <ele>74.16</ele>
        <time>2017-04-07T09:42:53Z</time>
      </trkpt>
      <trkpt lat="48.29763" lon="2.59824">
        <ele>73.68</ele>
        <time>2017-04-07T09:43:05Z</time>
      </trkpt>
    </trkseg>
  </trk>
</gpx>